<?xml version="1.0" encoding="UTF-8" standalone="no" ?>
<gpx xmlns="http://www.topografix.com/GPX/1/1" xmlns:xsi="http://www.w3.org/2001/XMLSchema-instance" xsi:schemaLocation="http://www.topografix.com/GPX/1/1 http://www.topografix.com/GPX/1/1/gpx.xsd" version="1.1" creator="VisuGPX - https://www.visugpx.com">
  <metadata>
    <name>Romettine 2014</name>
    <desc><![CDATA[Souvenir Bruno Felix.]]></desc>
  </metadata>
  <trk>
    <name><![CDATA[La Romettine 2014]]></name>
    <trkseg>
      <trkpt lat="44.57931" lon="6.10977">
        <ele>827.35180664062</ele>
        <time>2014-05-11T07:28:01Z</time>
      </trkpt>
      <trkpt lat="44.57936" lon="6.1096">
        <ele>827.83227539062</ele>
        <time>2014-05-11T07:28:07Z</time>
      </trkpt>
      <trkpt lat="44.5797" lon="6.10952">
        <ele>829.2744140625</ele>
        <time>2014-05-11T07:28:19Z</time>
      </trkpt>
      <trkpt lat="44.57975" lon="6.10953">
        <ele>830.23583984375</ele>
        <time>2014-05-11T07:28:21Z</time>
      </trkpt>
      <trkpt lat="44.5798" lon="6.10946">
        <ele>830.71655273438</ele>
        <time>2014-05-11T07:28:25Z</time>
      </trkpt>
      <trkpt lat="44.5799" lon="6.10897">
        <ele>832.15844726562</ele>
        <time>2014-05-11T07:28:40Z</time>
      </trkpt>
      <trkpt lat="44.57997" lon="6.1081">
        <ele>833.11962890625</ele>
        <time>2014-05-11T07:28:55Z</time>
      </trkpt>
      <trkpt lat="44.58008" lon="6.10756">
        <ele>835.52294921875</ele>
        <time>2014-05-11T07:29:08Z</time>
      </trkpt>
      <trkpt lat="44.58028" lon="6.10746">
        <ele>838.40698242188</ele>
        <time>2014-05-11T07:29:17Z</time>
      </trkpt>
      <trkpt lat="44.58034" lon="6.10741">
        <ele>839.84887695312</ele>
        <time>2014-05-11T07:29:20Z</time>
      </trkpt>
      <trkpt lat="44.58037" lon="6.10736">
        <ele>841.29077148438</ele>
        <time>2014-05-11T07:29:23Z</time>
      </trkpt>
      <trkpt lat="44.5804" lon="6.10719">
        <ele>842.25219726562</ele>
        <time>2014-05-11T07:29:30Z</time>
      </trkpt>
      <trkpt lat="44.58044" lon="6.10707">
        <ele>843.69409179688</ele>
        <time>2014-05-11T07:29:36Z</time>
      </trkpt>
      <trkpt lat="44.58039" lon="6.10674">
        <ele>844.17504882812</ele>
        <time>2014-05-11T07:29:46Z</time>
      </trkpt>
      <trkpt lat="44.58042" lon="6.10658">
        <ele>844.65551757812</ele>
        <time>2014-05-11T07:29:49Z</time>
      </trkpt>
      <trkpt lat="44.58044" lon="6.10643">
        <ele>845.61694335938</ele>
        <time>2014-05-11T07:29:54Z</time>
      </trkpt>
      <trkpt lat="44.58055" lon="6.10628">
        <ele>847.05883789062</ele>
        <time>2014-05-11T07:30:00Z</time>
      </trkpt>
      <trkpt lat="44.58064" lon="6.10642">
        <ele>848.02026367188</ele>
        <time>2014-05-11T07:30:07Z</time>
      </trkpt>
      <trkpt lat="44.58078" lon="6.10715">
        <ele>850.42358398438</ele>
        <time>2014-05-11T07:30:27Z</time>
      </trkpt>
      <trkpt lat="44.5811" lon="6.10725">
        <ele>852.82666015625</ele>
        <time>2014-05-11T07:30:38Z</time>
      </trkpt>
      <trkpt lat="44.58141" lon="6.10715">
        <ele>854.74926757812</ele>
        <time>2014-05-11T07:30:50Z</time>
      </trkpt>
      <trkpt lat="44.58163" lon="6.10691">
        <ele>855.71069335938</ele>
        <time>2014-05-11T07:31:01Z</time>
      </trkpt>
      <trkpt lat="44.58178" lon="6.10642">
        <ele>859.0751953125</ele>
        <time>2014-05-11T07:31:15Z</time>
      </trkpt>
      <trkpt lat="44.58195" lon="6.10598">
        <ele>862.43994140625</ele>
        <time>2014-05-11T07:31:28Z</time>
      </trkpt>
      <trkpt lat="44.58236" lon="6.1057">
        <ele>864.36254882812</ele>
        <time>2014-05-11T07:31:41Z</time>
      </trkpt>
      <trkpt lat="44.58277" lon="6.10554">
        <ele>868.20776367188</ele>
        <time>2014-05-11T07:31:57Z</time>
      </trkpt>
      <trkpt lat="44.58281" lon="6.10528">
        <ele>870.61108398438</ele>
        <time>2014-05-11T07:32:05Z</time>
      </trkpt>
      <trkpt lat="44.58286" lon="6.10472">
        <ele>873.01440429688</ele>
        <time>2014-05-11T07:32:20Z</time>
      </trkpt>
      <trkpt lat="44.58285" lon="6.10412">
        <ele>873.9755859375</ele>
        <time>2014-05-11T07:32:35Z</time>
      </trkpt>
      <trkpt lat="44.58273" lon="6.10335">
        <ele>875.89819335938</ele>
        <time>2014-05-11T07:32:50Z</time>
      </trkpt>
      <trkpt lat="44.58272" lon="6.10329">
        <ele>875.89819335938</ele>
        <time>2014-05-11T07:32:51Z</time>
      </trkpt>
      <trkpt lat="44.58258" lon="6.10245">
        <ele>873.4951171875</ele>
        <time>2014-05-11T07:33:03Z</time>
      </trkpt>
      <trkpt lat="44.58246" lon="6.10209">
        <ele>873.4951171875</ele>
        <time>2014-05-11T07:33:08Z</time>
      </trkpt>
      <trkpt lat="44.58238" lon="6.10191">
        <ele>873.4951171875</ele>
        <time>2014-05-11T07:33:11Z</time>
      </trkpt>
      <trkpt lat="44.58223" lon="6.10156">
        <ele>872.53369140625</ele>
        <time>2014-05-11T07:33:17Z</time>
      </trkpt>
      <trkpt lat="44.58214" lon="6.10135">
        <ele>871.572265625</ele>
        <time>2014-05-11T07:33:21Z</time>
      </trkpt>
      <trkpt lat="44.58205" lon="6.10119">
        <ele>870.13037109375</ele>
        <time>2014-05-11T07:33:25Z</time>
      </trkpt>
      <trkpt lat="44.58201" lon="6.10107">
        <ele>867.72705078125</ele>
        <time>2014-05-11T07:33:28Z</time>
      </trkpt>
      <trkpt lat="44.58183" lon="6.10106">
        <ele>864.84326171875</ele>
        <time>2014-05-11T07:33:32Z</time>
      </trkpt>
      <trkpt lat="44.58167" lon="6.1011">
        <ele>859.55590820312</ele>
        <time>2014-05-11T07:33:36Z</time>
      </trkpt>
      <trkpt lat="44.58164" lon="6.10109">
        <ele>858.11401367188</ele>
        <time>2014-05-11T07:33:38Z</time>
      </trkpt>
      <trkpt lat="44.58164" lon="6.10106">
        <ele>857.15258789062</ele>
        <time>2014-05-11T07:33:40Z</time>
      </trkpt>
      <trkpt lat="44.58163" lon="6.10105">
        <ele>857.15258789062</ele>
        <time>2014-05-11T07:33:41Z</time>
      </trkpt>
      <trkpt lat="44.58164" lon="6.101">
        <ele>856.19116210938</ele>
        <time>2014-05-11T07:33:44Z</time>
      </trkpt>
      <trkpt lat="44.58154" lon="6.10097">
        <ele>852.82666015625</ele>
        <time>2014-05-11T07:33:50Z</time>
      </trkpt>
      <trkpt lat="44.58148" lon="6.10096">
        <ele>850.42358398438</ele>
        <time>2014-05-11T07:33:57Z</time>
      </trkpt>
      <trkpt lat="44.58151" lon="6.10088">
        <ele>848.9814453125</ele>
        <time>2014-05-11T07:34:00Z</time>
      </trkpt>
      <trkpt lat="44.58161" lon="6.10077">
        <ele>845.13623046875</ele>
        <time>2014-05-11T07:34:04Z</time>
      </trkpt>
      <trkpt lat="44.58167" lon="6.1007">
        <ele>843.69409179688</ele>
        <time>2014-05-11T07:34:06Z</time>
      </trkpt>
      <trkpt lat="44.58167" lon="6.10054">
        <ele>839.3681640625</ele>
        <time>2014-05-11T07:34:11Z</time>
      </trkpt>
      <trkpt lat="44.58167" lon="6.10051">
        <ele>838.8876953125</ele>
        <time>2014-05-11T07:34:13Z</time>
      </trkpt>
      <trkpt lat="44.58165" lon="6.10049">
        <ele>838.40698242188</ele>
        <time>2014-05-11T07:34:16Z</time>
      </trkpt>
      <trkpt lat="44.5816" lon="6.10045">
        <ele>837.44555664062</ele>
        <time>2014-05-11T07:34:21Z</time>
      </trkpt>
      <trkpt lat="44.58153" lon="6.10041">
        <ele>834.0810546875</ele>
        <time>2014-05-11T07:34:31Z</time>
      </trkpt>
      <trkpt lat="44.58153" lon="6.10042">
        <ele>836.00366210938</ele>
        <time>2014-05-11T07:34:40Z</time>
      </trkpt>
      <trkpt lat="44.58151" lon="6.10036">
        <ele>836.96484375</ele>
        <time>2014-05-11T07:34:44Z</time>
      </trkpt>
      <trkpt lat="44.5815" lon="6.10026">
        <ele>839.3681640625</ele>
        <time>2014-05-11T07:34:56Z</time>
      </trkpt>
      <trkpt lat="44.5815" lon="6.10023">
        <ele>839.84887695312</ele>
        <time>2014-05-11T07:34:59Z</time>
      </trkpt>
      <trkpt lat="44.58146" lon="6.1001">
        <ele>842.73291015625</ele>
        <time>2014-05-11T07:35:12Z</time>
      </trkpt>
      <trkpt lat="44.58139" lon="6.10004">
        <ele>846.57836914062</ele>
        <time>2014-05-11T07:35:27Z</time>
      </trkpt>
      <trkpt lat="44.58139" lon="6.0999">
        <ele>848.9814453125</ele>
        <time>2014-05-11T07:35:40Z</time>
      </trkpt>
      <trkpt lat="44.5814" lon="6.0998">
        <ele>851.384765625</ele>
        <time>2014-05-11T07:35:51Z</time>
      </trkpt>
      <trkpt lat="44.58131" lon="6.09974">
        <ele>852.82666015625</ele>
        <time>2014-05-11T07:36:01Z</time>
      </trkpt>
      <trkpt lat="44.58115" lon="6.09967">
        <ele>855.71069335938</ele>
        <time>2014-05-11T07:36:17Z</time>
      </trkpt>
      <trkpt lat="44.5812" lon="6.09957">
        <ele>856.671875</ele>
        <time>2014-05-11T07:36:25Z</time>
      </trkpt>
      <trkpt lat="44.58124" lon="6.09954">
        <ele>857.63330078125</ele>
        <time>2014-05-11T07:36:29Z</time>
      </trkpt>
      <trkpt lat="44.58129" lon="6.09957">
        <ele>858.11401367188</ele>
        <time>2014-05-11T07:36:40Z</time>
      </trkpt>
      <trkpt lat="44.58135" lon="6.09959">
        <ele>859.55590820312</ele>
        <time>2014-05-11T07:36:48Z</time>
      </trkpt>
      <trkpt lat="44.58139" lon="6.09963">
        <ele>861.47875976562</ele>
        <time>2014-05-11T07:36:56Z</time>
      </trkpt>
      <trkpt lat="44.58151" lon="6.09962">
        <ele>862.43994140625</ele>
        <time>2014-05-11T07:37:07Z</time>
      </trkpt>
      <trkpt lat="44.58159" lon="6.09959">
        <ele>866.28515625</ele>
        <time>2014-05-11T07:37:24Z</time>
      </trkpt>
      <trkpt lat="44.58158" lon="6.09958">
        <ele>866.76586914062</ele>
        <time>2014-05-11T07:37:25Z</time>
      </trkpt>
      <trkpt lat="44.58163" lon="6.09953">
        <ele>867.72705078125</ele>
        <time>2014-05-11T07:37:36Z</time>
      </trkpt>
      <trkpt lat="44.58168" lon="6.09951">
        <ele>868.20776367188</ele>
        <time>2014-05-11T07:37:40Z</time>
      </trkpt>
      <trkpt lat="44.5818" lon="6.0995">
        <ele>869.16918945312</ele>
        <time>2014-05-11T07:37:46Z</time>
      </trkpt>
      <trkpt lat="44.58202" lon="6.09942">
        <ele>870.61108398438</ele>
        <time>2014-05-11T07:37:56Z</time>
      </trkpt>
      <trkpt lat="44.58232" lon="6.09929">
        <ele>873.9755859375</ele>
        <time>2014-05-11T07:38:09Z</time>
      </trkpt>
      <trkpt lat="44.58252" lon="6.09919">
        <ele>876.37915039062</ele>
        <time>2014-05-11T07:38:18Z</time>
      </trkpt>
      <trkpt lat="44.58275" lon="6.09908">
        <ele>879.74365234375</ele>
        <time>2014-05-11T07:38:29Z</time>
      </trkpt>
      <trkpt lat="44.58294" lon="6.09898">
        <ele>883.5888671875</ele>
        <time>2014-05-11T07:38:38Z</time>
      </trkpt>
      <trkpt lat="44.58296" lon="6.09898">
        <ele>883.5888671875</ele>
        <time>2014-05-11T07:38:39Z</time>
      </trkpt>
      <trkpt lat="44.58319" lon="6.09887">
        <ele>886.47290039062</ele>
        <time>2014-05-11T07:38:50Z</time>
      </trkpt>
      <trkpt lat="44.58324" lon="6.09886">
        <ele>887.43408203125</ele>
        <time>2014-05-11T07:38:52Z</time>
      </trkpt>
      <trkpt lat="44.58354" lon="6.0987">
        <ele>890.79858398438</ele>
        <time>2014-05-11T07:39:09Z</time>
      </trkpt>
      <trkpt lat="44.58374" lon="6.09856">
        <ele>893.68286132812</ele>
        <time>2014-05-11T07:39:21Z</time>
      </trkpt>
      <trkpt lat="44.58393" lon="6.09834">
        <ele>897.04736328125</ele>
        <time>2014-05-11T07:39:35Z</time>
      </trkpt>
      <trkpt lat="44.58408" lon="6.09814">
        <ele>900.412109375</ele>
        <time>2014-05-11T07:39:47Z</time>
      </trkpt>
      <trkpt lat="44.58426" lon="6.09798">
        <ele>903.2958984375</ele>
        <time>2014-05-11T07:39:59Z</time>
      </trkpt>
      <trkpt lat="44.58444" lon="6.09775">
        <ele>906.1796875</ele>
        <time>2014-05-11T07:40:13Z</time>
      </trkpt>
      <trkpt lat="44.58451" lon="6.09757">
        <ele>908.58325195312</ele>
        <time>2014-05-11T07:40:22Z</time>
      </trkpt>
      <trkpt lat="44.5846" lon="6.09735">
        <ele>910.98657226562</ele>
        <time>2014-05-11T07:40:32Z</time>
      </trkpt>
      <trkpt lat="44.58462" lon="6.09728">
        <ele>911.94799804688</ele>
        <time>2014-05-11T07:40:36Z</time>
      </trkpt>
      <trkpt lat="44.58464" lon="6.09714">
        <ele>914.35107421875</ele>
        <time>2014-05-11T07:40:48Z</time>
      </trkpt>
      <trkpt lat="44.58467" lon="6.09701">
        <ele>915.79321289062</ele>
        <time>2014-05-11T07:40:55Z</time>
      </trkpt>
      <trkpt lat="44.58474" lon="6.09685">
        <ele>917.71557617188</ele>
        <time>2014-05-11T07:41:03Z</time>
      </trkpt>
      <trkpt lat="44.5848" lon="6.09669">
        <ele>919.63842773438</ele>
        <time>2014-05-11T07:41:12Z</time>
      </trkpt>
      <trkpt lat="44.58488" lon="6.09654">
        <ele>921.56079101562</ele>
        <time>2014-05-11T07:41:22Z</time>
      </trkpt>
      <trkpt lat="44.58499" lon="6.09638">
        <ele>923.48364257812</ele>
        <time>2014-05-11T07:41:32Z</time>
      </trkpt>
      <trkpt lat="44.585" lon="6.09636">
        <ele>923.96411132812</ele>
        <time>2014-05-11T07:41:34Z</time>
      </trkpt>
      <trkpt lat="44.58504" lon="6.09624">
        <ele>925.40625</ele>
        <time>2014-05-11T07:41:40Z</time>
      </trkpt>
      <trkpt lat="44.58507" lon="6.09616">
        <ele>926.36767578125</ele>
        <time>2014-05-11T07:41:44Z</time>
      </trkpt>
      <trkpt lat="44.58511" lon="6.09594">
        <ele>929.73217773438</ele>
        <time>2014-05-11T07:41:57Z</time>
      </trkpt>
      <trkpt lat="44.58515" lon="6.09579">
        <ele>931.65478515625</ele>
        <time>2014-05-11T07:42:06Z</time>
      </trkpt>
      <trkpt lat="44.58521" lon="6.09568">
        <ele>933.57739257812</ele>
        <time>2014-05-11T07:42:15Z</time>
      </trkpt>
      <trkpt lat="44.58521" lon="6.09567">
        <ele>934.05810546875</ele>
        <time>2014-05-11T07:42:16Z</time>
      </trkpt>
      <trkpt lat="44.58523" lon="6.09562">
        <ele>934.53881835938</ele>
        <time>2014-05-11T07:42:18Z</time>
      </trkpt>
      <trkpt lat="44.58526" lon="6.09553">
        <ele>935.98071289062</ele>
        <time>2014-05-11T07:42:23Z</time>
      </trkpt>
      <trkpt lat="44.58528" lon="6.09537">
        <ele>937.42260742188</ele>
        <time>2014-05-11T07:42:31Z</time>
      </trkpt>
      <trkpt lat="44.58527" lon="6.09516">
        <ele>939.34521484375</ele>
        <time>2014-05-11T07:42:40Z</time>
      </trkpt>
      <trkpt lat="44.58527" lon="6.09503">
        <ele>941.26806640625</ele>
        <time>2014-05-11T07:42:48Z</time>
      </trkpt>
      <trkpt lat="44.58529" lon="6.09484">
        <ele>943.67138671875</ele>
        <time>2014-05-11T07:42:59Z</time>
      </trkpt>
      <trkpt lat="44.58529" lon="6.09482">
        <ele>944.15209960938</ele>
        <time>2014-05-11T07:43:00Z</time>
      </trkpt>
      <trkpt lat="44.5853" lon="6.09461">
        <ele>947.03588867188</ele>
        <time>2014-05-11T07:43:11Z</time>
      </trkpt>
      <trkpt lat="44.58529" lon="6.0946">
        <ele>946.55541992188</ele>
        <time>2014-05-11T07:43:12Z</time>
      </trkpt>
      <trkpt lat="44.58533" lon="6.09422">
        <ele>949.919921875</ele>
        <time>2014-05-11T07:43:27Z</time>
      </trkpt>
      <trkpt lat="44.58529" lon="6.09378">
        <ele>951.84252929688</ele>
        <time>2014-05-11T07:43:43Z</time>
      </trkpt>
      <trkpt lat="44.58529" lon="6.09376">
        <ele>952.32299804688</ele>
        <time>2014-05-11T07:43:44Z</time>
      </trkpt>
      <trkpt lat="44.58531" lon="6.09353">
        <ele>953.28442382812</ele>
        <time>2014-05-11T07:43:52Z</time>
      </trkpt>
      <trkpt lat="44.5853" lon="6.09339">
        <ele>954.24584960938</ele>
        <time>2014-05-11T07:43:58Z</time>
      </trkpt>
      <trkpt lat="44.58527" lon="6.09325">
        <ele>955.20703125</ele>
        <time>2014-05-11T07:44:04Z</time>
      </trkpt>
      <trkpt lat="44.58528" lon="6.09282">
        <ele>958.57177734375</ele>
        <time>2014-05-11T07:44:19Z</time>
      </trkpt>
      <trkpt lat="44.58528" lon="6.0928">
        <ele>959.05249023438</ele>
        <time>2014-05-11T07:44:20Z</time>
      </trkpt>
      <trkpt lat="44.58529" lon="6.0927">
        <ele>960.013671875</ele>
        <time>2014-05-11T07:44:25Z</time>
      </trkpt>
      <trkpt lat="44.58525" lon="6.0925">
        <ele>962.89770507812</ele>
        <time>2014-05-11T07:44:37Z</time>
      </trkpt>
      <trkpt lat="44.58529" lon="6.09236">
        <ele>963.85888671875</ele>
        <time>2014-05-11T07:44:40Z</time>
      </trkpt>
      <trkpt lat="44.58529" lon="6.09223">
        <ele>965.30102539062</ele>
        <time>2014-05-11T07:44:46Z</time>
      </trkpt>
      <trkpt lat="44.58527" lon="6.09217">
        <ele>966.26220703125</ele>
        <time>2014-05-11T07:44:49Z</time>
      </trkpt>
      <trkpt lat="44.58526" lon="6.09192">
        <ele>968.66552734375</ele>
        <time>2014-05-11T07:44:59Z</time>
      </trkpt>
      <trkpt lat="44.5853" lon="6.09191">
        <ele>969.14624023438</ele>
        <time>2014-05-11T07:45:04Z</time>
      </trkpt>
      <trkpt lat="44.5855" lon="6.0923">
        <ele>971.06884765625</ele>
        <time>2014-05-11T07:45:25Z</time>
      </trkpt>
      <trkpt lat="44.58564" lon="6.09256">
        <ele>972.99169921875</ele>
        <time>2014-05-11T07:45:38Z</time>
      </trkpt>
      <trkpt lat="44.5858" lon="6.09284">
        <ele>974.43359375</ele>
        <time>2014-05-11T07:45:52Z</time>
      </trkpt>
      <trkpt lat="44.58609" lon="6.09323">
        <ele>977.31762695312</ele>
        <time>2014-05-11T07:46:12Z</time>
      </trkpt>
      <trkpt lat="44.58644" lon="6.09357">
        <ele>980.20141601562</ele>
        <time>2014-05-11T07:46:33Z</time>
      </trkpt>
      <trkpt lat="44.5868" lon="6.09407">
        <ele>983.56591796875</ele>
        <time>2014-05-11T07:46:57Z</time>
      </trkpt>
      <trkpt lat="44.58712" lon="6.09443">
        <ele>985.96923828125</ele>
        <time>2014-05-11T07:47:16Z</time>
      </trkpt>
      <trkpt lat="44.58748" lon="6.09489">
        <ele>988.853515625</ele>
        <time>2014-05-11T07:47:39Z</time>
      </trkpt>
      <trkpt lat="44.58785" lon="6.09535">
        <ele>992.21801757812</ele>
        <time>2014-05-11T07:48:02Z</time>
      </trkpt>
      <trkpt lat="44.58814" lon="6.09584">
        <ele>995.10180664062</ele>
        <time>2014-05-11T07:48:24Z</time>
      </trkpt>
      <trkpt lat="44.58831" lon="6.09621">
        <ele>997.0244140625</ele>
        <time>2014-05-11T07:48:39Z</time>
      </trkpt>
      <trkpt lat="44.5885" lon="6.09665">
        <ele>999.427734375</ele>
        <time>2014-05-11T07:48:56Z</time>
      </trkpt>
      <trkpt lat="44.5887" lon="6.09706">
        <ele>1001.8310546875</ele>
        <time>2014-05-11T07:49:13Z</time>
      </trkpt>
      <trkpt lat="44.58904" lon="6.09742">
        <ele>1004.7150878906</ele>
        <time>2014-05-11T07:49:32Z</time>
      </trkpt>
      <trkpt lat="44.58932" lon="6.09756">
        <ele>1007.1184082031</ele>
        <time>2014-05-11T07:49:46Z</time>
      </trkpt>
      <trkpt lat="44.58953" lon="6.09762">
        <ele>1007.5991210938</ele>
        <time>2014-05-11T07:49:55Z</time>
      </trkpt>
      <trkpt lat="44.5896" lon="6.09762">
        <ele>1008.0798339844</ele>
        <time>2014-05-11T07:49:58Z</time>
      </trkpt>
      <trkpt lat="44.58978" lon="6.09768">
        <ele>1010.0021972656</ele>
        <time>2014-05-11T07:50:07Z</time>
      </trkpt>
      <trkpt lat="44.59003" lon="6.09771">
        <ele>1011.4443359375</ele>
        <time>2014-05-11T07:50:18Z</time>
      </trkpt>
      <trkpt lat="44.59037" lon="6.09772">
        <ele>1013.8474121094</ele>
        <time>2014-05-11T07:50:33Z</time>
      </trkpt>
      <trkpt lat="44.5906" lon="6.09773">
        <ele>1015.7702636719</ele>
        <time>2014-05-11T07:50:44Z</time>
      </trkpt>
      <trkpt lat="44.59092" lon="6.09775">
        <ele>1017.6926269531</ele>
        <time>2014-05-11T07:50:57Z</time>
      </trkpt>
      <trkpt lat="44.59109" lon="6.09774">
        <ele>1018.6540527344</ele>
        <time>2014-05-11T07:51:04Z</time>
      </trkpt>
      <trkpt lat="44.59115" lon="6.09776">
        <ele>1019.134765625</ele>
        <time>2014-05-11T07:51:07Z</time>
      </trkpt>
      <trkpt lat="44.5915" lon="6.0978">
        <ele>1022.0187988281</ele>
        <time>2014-05-11T07:51:24Z</time>
      </trkpt>
      <trkpt lat="44.59153" lon="6.09779">
        <ele>1022.0187988281</ele>
        <time>2014-05-11T07:51:25Z</time>
      </trkpt>
      <trkpt lat="44.59178" lon="6.09782">
        <ele>1024.4221191406</ele>
        <time>2014-05-11T07:51:37Z</time>
      </trkpt>
      <trkpt lat="44.59201" lon="6.09782">
        <ele>1025.8640136719</ele>
        <time>2014-05-11T07:51:46Z</time>
      </trkpt>
      <trkpt lat="44.59208" lon="6.09784">
        <ele>1026.3447265625</ele>
        <time>2014-05-11T07:51:49Z</time>
      </trkpt>
      <trkpt lat="44.59218" lon="6.09783">
        <ele>1026.8254394531</ele>
        <time>2014-05-11T07:51:53Z</time>
      </trkpt>
      <trkpt lat="44.59224" lon="6.09785">
        <ele>1026.8254394531</ele>
        <time>2014-05-11T07:51:56Z</time>
      </trkpt>
      <trkpt lat="44.59241" lon="6.09786">
        <ele>1027.7866210938</ele>
        <time>2014-05-11T07:52:02Z</time>
      </trkpt>
      <trkpt lat="44.59263" lon="6.09792">
        <ele>1028.2673339844</ele>
        <time>2014-05-11T07:52:10Z</time>
      </trkpt>
      <trkpt lat="44.59299" lon="6.09826">
        <ele>1029.7092285156</ele>
        <time>2014-05-11T07:52:25Z</time>
      </trkpt>
      <trkpt lat="44.59335" lon="6.09885">
        <ele>1031.1513671875</ele>
        <time>2014-05-11T07:52:42Z</time>
      </trkpt>
      <trkpt lat="44.5937" lon="6.09949">
        <ele>1032.5932617188</ele>
        <time>2014-05-11T07:53:02Z</time>
      </trkpt>
      <trkpt lat="44.59376" lon="6.0996">
        <ele>1033.0737304688</ele>
        <time>2014-05-11T07:53:05Z</time>
      </trkpt>
      <trkpt lat="44.59388" lon="6.10008">
        <ele>1034.5158691406</ele>
        <time>2014-05-11T07:53:18Z</time>
      </trkpt>
      <trkpt lat="44.59387" lon="6.10043">
        <ele>1036.9191894531</ele>
        <time>2014-05-11T07:53:29Z</time>
      </trkpt>
      <trkpt lat="44.59386" lon="6.10098">
        <ele>1039.8032226562</ele>
        <time>2014-05-11T07:53:46Z</time>
      </trkpt>
      <trkpt lat="44.59382" lon="6.10152">
        <ele>1041.7258300781</ele>
        <time>2014-05-11T07:54:02Z</time>
      </trkpt>
      <trkpt lat="44.59383" lon="6.10203">
        <ele>1044.1291503906</ele>
        <time>2014-05-11T07:54:18Z</time>
      </trkpt>
      <trkpt lat="44.59404" lon="6.10258">
        <ele>1046.5324707031</ele>
        <time>2014-05-11T07:54:37Z</time>
      </trkpt>
      <trkpt lat="44.59437" lon="6.10292">
        <ele>1048.935546875</ele>
        <time>2014-05-11T07:54:54Z</time>
      </trkpt>
      <trkpt lat="44.5947" lon="6.10324">
        <ele>1051.8195800781</ele>
        <time>2014-05-11T07:55:12Z</time>
      </trkpt>
      <trkpt lat="44.59498" lon="6.10357">
        <ele>1054.2231445312</ele>
        <time>2014-05-11T07:55:28Z</time>
      </trkpt>
      <trkpt lat="44.59524" lon="6.10393">
        <ele>1056.6262207031</ele>
        <time>2014-05-11T07:55:44Z</time>
      </trkpt>
      <trkpt lat="44.59543" lon="6.10431">
        <ele>1058.548828125</ele>
        <time>2014-05-11T07:55:59Z</time>
      </trkpt>
      <trkpt lat="44.59559" lon="6.10486">
        <ele>1060.9521484375</ele>
        <time>2014-05-11T07:56:17Z</time>
      </trkpt>
      <trkpt lat="44.59569" lon="6.10554">
        <ele>1064.3166503906</ele>
        <time>2014-05-11T07:56:39Z</time>
      </trkpt>
      <trkpt lat="44.59579" lon="6.10615">
        <ele>1067.2006835938</ele>
        <time>2014-05-11T07:56:59Z</time>
      </trkpt>
      <trkpt lat="44.59586" lon="6.10681">
        <ele>1070.5654296875</ele>
        <time>2014-05-11T07:57:20Z</time>
      </trkpt>
      <trkpt lat="44.59596" lon="6.1075">
        <ele>1073.4494628906</ele>
        <time>2014-05-11T07:57:42Z</time>
      </trkpt>
      <trkpt lat="44.59607" lon="6.10814">
        <ele>1076.8139648438</ele>
        <time>2014-05-11T07:58:02Z</time>
      </trkpt>
      <trkpt lat="44.59622" lon="6.10881">
        <ele>1079.6977539062</ele>
        <time>2014-05-11T07:58:24Z</time>
      </trkpt>
      <trkpt lat="44.59628" lon="6.10914">
        <ele>1081.6203613281</ele>
        <time>2014-05-11T07:58:36Z</time>
      </trkpt>
      <trkpt lat="44.59628" lon="6.10922">
        <ele>1081.6203613281</ele>
        <time>2014-05-11T07:58:39Z</time>
      </trkpt>
      <trkpt lat="44.59631" lon="6.10929">
        <ele>1082.5817871094</ele>
        <time>2014-05-11T07:58:43Z</time>
      </trkpt>
      <trkpt lat="44.59645" lon="6.10982">
        <ele>1084.5046386719</ele>
        <time>2014-05-11T07:59:00Z</time>
      </trkpt>
      <trkpt lat="44.59662" lon="6.11049">
        <ele>1087.869140625</ele>
        <time>2014-05-11T07:59:21Z</time>
      </trkpt>
      <trkpt lat="44.59679" lon="6.11108">
        <ele>1090.7529296875</ele>
        <time>2014-05-11T07:59:41Z</time>
      </trkpt>
      <trkpt lat="44.59692" lon="6.11162">
        <ele>1093.6369628906</ele>
        <time>2014-05-11T07:59:59Z</time>
      </trkpt>
      <trkpt lat="44.59705" lon="6.11205">
        <ele>1096.0402832031</ele>
        <time>2014-05-11T08:00:14Z</time>
      </trkpt>
      <trkpt lat="44.59732" lon="6.11248">
        <ele>1098.443359375</ele>
        <time>2014-05-11T08:00:32Z</time>
      </trkpt>
      <trkpt lat="44.59774" lon="6.11275">
        <ele>1101.3276367188</ele>
        <time>2014-05-11T08:00:52Z</time>
      </trkpt>
      <trkpt lat="44.59826" lon="6.11279">
        <ele>1104.6921386719</ele>
        <time>2014-05-11T08:01:14Z</time>
      </trkpt>
      <trkpt lat="44.59881" lon="6.11278">
        <ele>1107.576171875</ele>
        <time>2014-05-11T08:01:37Z</time>
      </trkpt>
      <trkpt lat="44.59916" lon="6.11297">
        <ele>1110.9406738281</ele>
        <time>2014-05-11T08:01:54Z</time>
      </trkpt>
      <trkpt lat="44.59941" lon="6.11318">
        <ele>1112.86328125</ele>
        <time>2014-05-11T08:02:08Z</time>
      </trkpt>
      <trkpt lat="44.59947" lon="6.11322">
        <ele>1113.3439941406</ele>
        <time>2014-05-11T08:02:11Z</time>
      </trkpt>
      <trkpt lat="44.59965" lon="6.11352">
        <ele>1114.7858886719</ele>
        <time>2014-05-11T08:02:25Z</time>
      </trkpt>
      <trkpt lat="44.5999" lon="6.11398">
        <ele>1117.669921875</ele>
        <time>2014-05-11T08:02:44Z</time>
      </trkpt>
      <trkpt lat="44.60014" lon="6.11441">
        <ele>1120.0732421875</ele>
        <time>2014-05-11T08:03:03Z</time>
      </trkpt>
      <trkpt lat="44.60041" lon="6.1149">
        <ele>1123.4379882812</ele>
        <time>2014-05-11T08:03:23Z</time>
      </trkpt>
      <trkpt lat="44.60072" lon="6.11544">
        <ele>1126.3217773438</ele>
        <time>2014-05-11T08:03:44Z</time>
      </trkpt>
      <trkpt lat="44.60097" lon="6.11595">
        <ele>1129.6862792969</ele>
        <time>2014-05-11T08:04:02Z</time>
      </trkpt>
      <trkpt lat="44.60122" lon="6.11653">
        <ele>1133.0510253906</ele>
        <time>2014-05-11T08:04:22Z</time>
      </trkpt>
      <trkpt lat="44.60149" lon="6.11717">
        <ele>1135.9350585938</ele>
        <time>2014-05-11T08:04:44Z</time>
      </trkpt>
      <trkpt lat="44.60168" lon="6.11766">
        <ele>1139.2995605469</ele>
        <time>2014-05-11T08:05:00Z</time>
      </trkpt>
      <trkpt lat="44.60182" lon="6.11805">
        <ele>1141.7028808594</ele>
        <time>2014-05-11T08:05:16Z</time>
      </trkpt>
      <trkpt lat="44.6019" lon="6.11827">
        <ele>1144.5866699219</ele>
        <time>2014-05-11T08:05:26Z</time>
      </trkpt>
      <trkpt lat="44.60203" lon="6.11859">
        <ele>1147.470703125</ele>
        <time>2014-05-11T08:05:42Z</time>
      </trkpt>
      <trkpt lat="44.60226" lon="6.11889">
        <ele>1148.4321289062</ele>
        <time>2014-05-11T08:05:57Z</time>
      </trkpt>
      <trkpt lat="44.60268" lon="6.11909">
        <ele>1147.9514160156</ele>
        <time>2014-05-11T08:06:13Z</time>
      </trkpt>
      <trkpt lat="44.6032" lon="6.11949">
        <ele>1149.3935546875</ele>
        <time>2014-05-11T08:06:34Z</time>
      </trkpt>
      <trkpt lat="44.60361" lon="6.11982">
        <ele>1150.8354492188</ele>
        <time>2014-05-11T08:06:51Z</time>
      </trkpt>
      <trkpt lat="44.60378" lon="6.11999">
        <ele>1152.7580566406</ele>
        <time>2014-05-11T08:07:01Z</time>
      </trkpt>
      <trkpt lat="44.60408" lon="6.12048">
        <ele>1154.2001953125</ele>
        <time>2014-05-11T08:07:18Z</time>
      </trkpt>
      <trkpt lat="44.60428" lon="6.12116">
        <ele>1156.6032714844</ele>
        <time>2014-05-11T08:07:39Z</time>
      </trkpt>
      <trkpt lat="44.6043" lon="6.12174">
        <ele>1158.5258789062</ele>
        <time>2014-05-11T08:07:55Z</time>
      </trkpt>
      <trkpt lat="44.60431" lon="6.12247">
        <ele>1161.4099121094</ele>
        <time>2014-05-11T08:08:15Z</time>
      </trkpt>
      <trkpt lat="44.60433" lon="6.12312">
        <ele>1164.2939453125</ele>
        <time>2014-05-11T08:08:34Z</time>
      </trkpt>
      <trkpt lat="44.60434" lon="6.12356">
        <ele>1166.2165527344</ele>
        <time>2014-05-11T08:08:47Z</time>
      </trkpt>
      <trkpt lat="44.60435" lon="6.12394">
        <ele>1168.6198730469</ele>
        <time>2014-05-11T08:08:58Z</time>
      </trkpt>
      <trkpt lat="44.60434" lon="6.12448">
        <ele>1170.0617675781</ele>
        <time>2014-05-11T08:09:14Z</time>
      </trkpt>
      <trkpt lat="44.60437" lon="6.12481">
        <ele>1171.984375</ele>
        <time>2014-05-11T08:09:24Z</time>
      </trkpt>
      <trkpt lat="44.60442" lon="6.12523">
        <ele>1174.3876953125</ele>
        <time>2014-05-11T08:09:38Z</time>
      </trkpt>
      <trkpt lat="44.60465" lon="6.12569">
        <ele>1177.2717285156</ele>
        <time>2014-05-11T08:09:55Z</time>
      </trkpt>
      <trkpt lat="44.60503" lon="6.12596">
        <ele>1179.1940917969</ele>
        <time>2014-05-11T08:10:11Z</time>
      </trkpt>
      <trkpt lat="44.60534" lon="6.126">
        <ele>1181.1171875</ele>
        <time>2014-05-11T08:10:23Z</time>
      </trkpt>
      <trkpt lat="44.60576" lon="6.12598">
        <ele>1184.4816894531</ele>
        <time>2014-05-11T08:10:39Z</time>
      </trkpt>
      <trkpt lat="44.60619" lon="6.12601">
        <ele>1186.884765625</ele>
        <time>2014-05-11T08:10:57Z</time>
      </trkpt>
      <trkpt lat="44.60656" lon="6.12629">
        <ele>1189.7687988281</ele>
        <time>2014-05-11T08:11:14Z</time>
      </trkpt>
      <trkpt lat="44.60677" lon="6.12671">
        <ele>1192.1721191406</ele>
        <time>2014-05-11T08:11:30Z</time>
      </trkpt>
      <trkpt lat="44.60684" lon="6.12717">
        <ele>1194.5751953125</ele>
        <time>2014-05-11T08:11:46Z</time>
      </trkpt>
      <trkpt lat="44.60688" lon="6.12758">
        <ele>1196.4982910156</ele>
        <time>2014-05-11T08:12:01Z</time>
      </trkpt>
      <trkpt lat="44.60689" lon="6.12764">
        <ele>1197.4594726562</ele>
        <time>2014-05-11T08:12:03Z</time>
      </trkpt>
      <trkpt lat="44.60692" lon="6.12812">
        <ele>1199.3820800781</ele>
        <time>2014-05-11T08:12:20Z</time>
      </trkpt>
      <trkpt lat="44.60693" lon="6.12846">
        <ele>1200.8239746094</ele>
        <time>2014-05-11T08:12:32Z</time>
      </trkpt>
      <trkpt lat="44.60699" lon="6.12897">
        <ele>1203.7080078125</ele>
        <time>2014-05-11T08:12:48Z</time>
      </trkpt>
      <trkpt lat="44.60706" lon="6.12937">
        <ele>1206.1110839844</ele>
        <time>2014-05-11T08:13:02Z</time>
      </trkpt>
      <trkpt lat="44.60714" lon="6.12964">
        <ele>1207.5532226562</ele>
        <time>2014-05-11T08:13:11Z</time>
      </trkpt>
      <trkpt lat="44.6072" lon="6.12988">
        <ele>1208.9951171875</ele>
        <time>2014-05-11T08:13:19Z</time>
      </trkpt>
      <trkpt lat="44.60745" lon="6.13024">
        <ele>1210.4370117188</ele>
        <time>2014-05-11T08:13:33Z</time>
      </trkpt>
      <trkpt lat="44.60746" lon="6.13027">
        <ele>1210.9177246094</ele>
        <time>2014-05-11T08:13:34Z</time>
      </trkpt>
      <trkpt lat="44.60782" lon="6.13072">
        <ele>1213.8017578125</ele>
        <time>2014-05-11T08:13:53Z</time>
      </trkpt>
      <trkpt lat="44.60811" lon="6.1311">
        <ele>1217.1665039062</ele>
        <time>2014-05-11T08:14:10Z</time>
      </trkpt>
      <trkpt lat="44.60822" lon="6.13136">
        <ele>1218.6083984375</ele>
        <time>2014-05-11T08:14:20Z</time>
      </trkpt>
      <trkpt lat="44.60828" lon="6.13159">
        <ele>1219.0891113281</ele>
        <time>2014-05-11T08:14:27Z</time>
      </trkpt>
      <trkpt lat="44.60832" lon="6.13176">
        <ele>1220.5310058594</ele>
        <time>2014-05-11T08:14:34Z</time>
      </trkpt>
      <trkpt lat="44.6083" lon="6.13192">
        <ele>1221.01171875</ele>
        <time>2014-05-11T08:14:40Z</time>
      </trkpt>
      <trkpt lat="44.60824" lon="6.13211">
        <ele>1222.4536132812</ele>
        <time>2014-05-11T08:14:47Z</time>
      </trkpt>
      <trkpt lat="44.60814" lon="6.13248">
        <ele>1224.8569335938</ele>
        <time>2014-05-11T08:15:00Z</time>
      </trkpt>
      <trkpt lat="44.60794" lon="6.13294">
        <ele>1227.2602539062</ele>
        <time>2014-05-11T08:15:16Z</time>
      </trkpt>
      <trkpt lat="44.60792" lon="6.133">
        <ele>1227.7407226562</ele>
        <time>2014-05-11T08:15:18Z</time>
      </trkpt>
      <trkpt lat="44.6078" lon="6.13325">
        <ele>1229.1828613281</ele>
        <time>2014-05-11T08:15:28Z</time>
      </trkpt>
      <trkpt lat="44.60759" lon="6.13348">
        <ele>1231.5861816406</ele>
        <time>2014-05-11T08:15:39Z</time>
      </trkpt>
      <trkpt lat="44.60755" lon="6.13352">
        <ele>1231.5861816406</ele>
        <time>2014-05-11T08:15:41Z</time>
      </trkpt>
      <trkpt lat="44.6075" lon="6.13361">
        <ele>1232.0668945312</ele>
        <time>2014-05-11T08:15:45Z</time>
      </trkpt>
      <trkpt lat="44.60745" lon="6.13366">
        <ele>1232.0668945312</ele>
        <time>2014-05-11T08:15:50Z</time>
      </trkpt>
      <trkpt lat="44.60732" lon="6.13383">
        <ele>1233.5087890625</ele>
        <time>2014-05-11T08:16:01Z</time>
      </trkpt>
      <trkpt lat="44.60728" lon="6.13388">
        <ele>1233.9895019531</ele>
        <time>2014-05-11T08:16:04Z</time>
      </trkpt>
      <trkpt lat="44.60712" lon="6.13406">
        <ele>1235.4313964844</ele>
        <time>2014-05-11T08:16:14Z</time>
      </trkpt>
      <trkpt lat="44.60694" lon="6.1343">
        <ele>1236.8732910156</ele>
        <time>2014-05-11T08:16:25Z</time>
      </trkpt>
      <trkpt lat="44.60692" lon="6.13432">
        <ele>1237.3540039062</ele>
        <time>2014-05-11T08:16:26Z</time>
      </trkpt>
      <trkpt lat="44.60684" lon="6.13444">
        <ele>1238.3154296875</ele>
        <time>2014-05-11T08:16:31Z</time>
      </trkpt>
      <trkpt lat="44.60666" lon="6.13462">
        <ele>1239.7573242188</ele>
        <time>2014-05-11T08:16:39Z</time>
      </trkpt>
      <trkpt lat="44.60659" lon="6.13469">
        <ele>1240.2380371094</ele>
        <time>2014-05-11T08:16:43Z</time>
      </trkpt>
      <trkpt lat="44.60638" lon="6.13494">
        <ele>1242.1606445312</ele>
        <time>2014-05-11T08:16:53Z</time>
      </trkpt>
      <trkpt lat="44.60636" lon="6.13498">
        <ele>1242.6413574219</ele>
        <time>2014-05-11T08:16:55Z</time>
      </trkpt>
      <trkpt lat="44.60628" lon="6.13506">
        <ele>1243.1218261719</ele>
        <time>2014-05-11T08:16:59Z</time>
      </trkpt>
      <trkpt lat="44.60615" lon="6.13517">
        <ele>1244.0834960938</ele>
        <time>2014-05-11T08:17:06Z</time>
      </trkpt>
      <trkpt lat="44.60601" lon="6.13547">
        <ele>1246.0061035156</ele>
        <time>2014-05-11T08:17:16Z</time>
      </trkpt>
      <trkpt lat="44.60582" lon="6.13581">
        <ele>1247.9287109375</ele>
        <time>2014-05-11T08:17:28Z</time>
      </trkpt>
      <trkpt lat="44.60563" lon="6.13625">
        <ele>1249.8513183594</ele>
        <time>2014-05-11T08:17:40Z</time>
      </trkpt>
      <trkpt lat="44.60553" lon="6.13671">
        <ele>1251.7739257812</ele>
        <time>2014-05-11T08:17:52Z</time>
      </trkpt>
      <trkpt lat="44.60548" lon="6.13706">
        <ele>1253.6965332031</ele>
        <time>2014-05-11T08:18:03Z</time>
      </trkpt>
      <trkpt lat="44.60547" lon="6.13745">
        <ele>1256.5803222656</ele>
        <time>2014-05-11T08:18:16Z</time>
      </trkpt>
      <trkpt lat="44.60549" lon="6.13762">
        <ele>1256.5803222656</ele>
        <time>2014-05-11T08:18:21Z</time>
      </trkpt>
      <trkpt lat="44.6055" lon="6.13778">
        <ele>1258.0224609375</ele>
        <time>2014-05-11T08:18:26Z</time>
      </trkpt>
      <trkpt lat="44.6057" lon="6.13852">
        <ele>1260.42578125</ele>
        <time>2014-05-11T08:18:43Z</time>
      </trkpt>
      <trkpt lat="44.60614" lon="6.13927">
        <ele>1262.3483886719</ele>
        <time>2014-05-11T08:19:07Z</time>
      </trkpt>
      <trkpt lat="44.60673" lon="6.13961">
        <ele>1264.7517089844</ele>
        <time>2014-05-11T08:19:28Z</time>
      </trkpt>
      <trkpt lat="44.60734" lon="6.13966">
        <ele>1267.6354980469</ele>
        <time>2014-05-11T08:19:48Z</time>
      </trkpt>
      <trkpt lat="44.6081" lon="6.13961">
        <ele>1270.51953125</ele>
        <time>2014-05-11T08:20:13Z</time>
      </trkpt>
      <trkpt lat="44.60884" lon="6.13955">
        <ele>1272.4421386719</ele>
        <time>2014-05-11T08:20:37Z</time>
      </trkpt>
      <trkpt lat="44.60947" lon="6.13948">
        <ele>1275.3259277344</ele>
        <time>2014-05-11T08:20:57Z</time>
      </trkpt>
      <trkpt lat="44.61019" lon="6.13943">
        <ele>1278.6909179688</ele>
        <time>2014-05-11T08:21:20Z</time>
      </trkpt>
      <trkpt lat="44.61072" lon="6.13936">
        <ele>1278.6909179688</ele>
        <time>2014-05-11T08:21:37Z</time>
      </trkpt>
      <trkpt lat="44.61114" lon="6.13905">
        <ele>1278.6909179688</ele>
        <time>2014-05-11T08:21:51Z</time>
      </trkpt>
      <trkpt lat="44.61125" lon="6.13907">
        <ele>1277.7294921875</ele>
        <time>2014-05-11T08:22:01Z</time>
      </trkpt>
      <trkpt lat="44.61127" lon="6.1391">
        <ele>1277.7294921875</ele>
        <time>2014-05-11T08:22:18Z</time>
      </trkpt>
      <trkpt lat="44.61128" lon="6.13911">
        <ele>1277.7294921875</ele>
        <time>2014-05-11T08:22:48Z</time>
      </trkpt>
      <trkpt lat="44.61125" lon="6.13912">
        <ele>1277.7294921875</ele>
        <time>2014-05-11T08:23:03Z</time>
      </trkpt>
      <trkpt lat="44.61127" lon="6.13912">
        <ele>1277.2490234375</ele>
        <time>2014-05-11T08:23:26Z</time>
      </trkpt>
      <trkpt lat="44.61128" lon="6.13911">
        <ele>1277.7294921875</ele>
        <time>2014-05-11T08:23:57Z</time>
      </trkpt>
      <trkpt lat="44.61128" lon="6.1391">
        <ele>1277.7294921875</ele>
        <time>2014-05-11T08:24:17Z</time>
      </trkpt>
      <trkpt lat="44.61127" lon="6.1391">
        <ele>1277.2490234375</ele>
        <time>2014-05-11T08:24:42Z</time>
      </trkpt>
      <trkpt lat="44.61126" lon="6.1391">
        <ele>1276.7683105469</ele>
        <time>2014-05-11T08:25:24Z</time>
      </trkpt>
      <trkpt lat="44.61125" lon="6.13912">
        <ele>1276.7683105469</ele>
        <time>2014-05-11T08:27:11Z</time>
      </trkpt>
      <trkpt lat="44.61123" lon="6.1391">
        <ele>1276.2875976562</ele>
        <time>2014-05-11T08:27:26Z</time>
      </trkpt>
      <trkpt lat="44.61121" lon="6.1391">
        <ele>1276.7683105469</ele>
        <time>2014-05-11T08:27:50Z</time>
      </trkpt>
      <trkpt lat="44.61104" lon="6.1392">
        <ele>1276.7683105469</ele>
        <time>2014-05-11T08:28:02Z</time>
      </trkpt>
      <trkpt lat="44.61097" lon="6.13929">
        <ele>1276.2875976562</ele>
        <time>2014-05-11T08:28:07Z</time>
      </trkpt>
      <trkpt lat="44.61092" lon="6.13956">
        <ele>1276.7683105469</ele>
        <time>2014-05-11T08:28:19Z</time>
      </trkpt>
      <trkpt lat="44.611" lon="6.14033">
        <ele>1276.7683105469</ele>
        <time>2014-05-11T08:28:37Z</time>
      </trkpt>
      <trkpt lat="44.61114" lon="6.14105">
        <ele>1280.1328125</ele>
        <time>2014-05-11T08:28:53Z</time>
      </trkpt>
      <trkpt lat="44.61117" lon="6.14116">
        <ele>1281.0942382812</ele>
        <time>2014-05-11T08:28:56Z</time>
      </trkpt>
      <trkpt lat="44.61128" lon="6.14158">
        <ele>1284.4587402344</ele>
        <time>2014-05-11T08:29:09Z</time>
      </trkpt>
      <trkpt lat="44.61108" lon="6.1421">
        <ele>1286.8618164062</ele>
        <time>2014-05-11T08:29:25Z</time>
      </trkpt>
      <trkpt lat="44.61112" lon="6.14277">
        <ele>1286.8618164062</ele>
        <time>2014-05-11T08:29:39Z</time>
      </trkpt>
      <trkpt lat="44.61133" lon="6.1434">
        <ele>1284.939453125</ele>
        <time>2014-05-11T08:29:50Z</time>
      </trkpt>
      <trkpt lat="44.61189" lon="6.14406">
        <ele>1283.9780273438</ele>
        <time>2014-05-11T08:30:06Z</time>
      </trkpt>
      <trkpt lat="44.61223" lon="6.14414">
        <ele>1287.8232421875</ele>
        <time>2014-05-11T08:30:18Z</time>
      </trkpt>
      <trkpt lat="44.61259" lon="6.14424">
        <ele>1290.70703125</ele>
        <time>2014-05-11T08:30:32Z</time>
      </trkpt>
      <trkpt lat="44.61261" lon="6.14442">
        <ele>1292.6301269531</ele>
        <time>2014-05-11T08:30:38Z</time>
      </trkpt>
      <trkpt lat="44.6124" lon="6.14465">
        <ele>1295.5139160156</ele>
        <time>2014-05-11T08:30:50Z</time>
      </trkpt>
      <trkpt lat="44.61211" lon="6.14487">
        <ele>1298.8784179688</ele>
        <time>2014-05-11T08:31:04Z</time>
      </trkpt>
      <trkpt lat="44.61184" lon="6.14513">
        <ele>1302.2429199219</ele>
        <time>2014-05-11T08:31:18Z</time>
      </trkpt>
      <trkpt lat="44.61164" lon="6.14532">
        <ele>1305.126953125</ele>
        <time>2014-05-11T08:31:29Z</time>
      </trkpt>
      <trkpt lat="44.61162" lon="6.14554">
        <ele>1308.4916992188</ele>
        <time>2014-05-11T08:31:40Z</time>
      </trkpt>
      <trkpt lat="44.61183" lon="6.14571">
        <ele>1311.3757324219</ele>
        <time>2014-05-11T08:31:54Z</time>
      </trkpt>
      <trkpt lat="44.61178" lon="6.14597">
        <ele>1314.740234375</ele>
        <time>2014-05-11T08:32:08Z</time>
      </trkpt>
      <trkpt lat="44.61145" lon="6.14613">
        <ele>1317.6240234375</ele>
        <time>2014-05-11T08:32:26Z</time>
      </trkpt>
      <trkpt lat="44.61121" lon="6.14647">
        <ele>1321.4692382812</ele>
        <time>2014-05-11T08:32:44Z</time>
      </trkpt>
      <trkpt lat="44.61106" lon="6.14693">
        <ele>1321.9499511719</ele>
        <time>2014-05-11T08:32:57Z</time>
      </trkpt>
      <trkpt lat="44.61091" lon="6.14713">
        <ele>1325.3146972656</ele>
        <time>2014-05-11T08:33:09Z</time>
      </trkpt>
      <trkpt lat="44.61059" lon="6.14699">
        <ele>1326.2761230469</ele>
        <time>2014-05-11T08:33:23Z</time>
      </trkpt>
      <trkpt lat="44.61038" lon="6.14707">
        <ele>1329.1599121094</ele>
        <time>2014-05-11T08:33:36Z</time>
      </trkpt>
      <trkpt lat="44.61036" lon="6.14712">
        <ele>1330.1213378906</ele>
        <time>2014-05-11T08:33:39Z</time>
      </trkpt>
      <trkpt lat="44.61037" lon="6.14719">
        <ele>1331.5632324219</ele>
        <time>2014-05-11T08:33:43Z</time>
      </trkpt>
      <trkpt lat="44.61047" lon="6.14748">
        <ele>1334.9279785156</ele>
        <time>2014-05-11T08:34:02Z</time>
      </trkpt>
      <trkpt lat="44.61055" lon="6.14769">
        <ele>1338.2924804688</ele>
        <time>2014-05-11T08:34:17Z</time>
      </trkpt>
      <trkpt lat="44.61056" lon="6.14788">
        <ele>1341.1765136719</ele>
        <time>2014-05-11T08:34:30Z</time>
      </trkpt>
      <trkpt lat="44.61055" lon="6.14793">
        <ele>1342.1379394531</ele>
        <time>2014-05-11T08:34:33Z</time>
      </trkpt>
      <trkpt lat="44.61056" lon="6.14796">
        <ele>1343.0991210938</ele>
        <time>2014-05-11T08:34:36Z</time>
      </trkpt>
      <trkpt lat="44.61055" lon="6.14808">
        <ele>1344.541015625</ele>
        <time>2014-05-11T08:34:44Z</time>
      </trkpt>
      <trkpt lat="44.61056" lon="6.14811">
        <ele>1345.0217285156</ele>
        <time>2014-05-11T08:34:46Z</time>
      </trkpt>
      <trkpt lat="44.61053" lon="6.14834">
        <ele>1348.3862304688</ele>
        <time>2014-05-11T08:35:01Z</time>
      </trkpt>
      <trkpt lat="44.61044" lon="6.14848">
        <ele>1349.8283691406</ele>
        <time>2014-05-11T08:35:13Z</time>
      </trkpt>
      <trkpt lat="44.6104" lon="6.14861">
        <ele>1352.7121582031</ele>
        <time>2014-05-11T08:35:27Z</time>
      </trkpt>
      <trkpt lat="44.61034" lon="6.14875">
        <ele>1355.5961914062</ele>
        <time>2014-05-11T08:35:42Z</time>
      </trkpt>
      <trkpt lat="44.61024" lon="6.14873">
        <ele>1354.154296875</ele>
        <time>2014-05-11T08:35:47Z</time>
      </trkpt>
      <trkpt lat="44.61016" lon="6.1487">
        <ele>1352.7121582031</ele>
        <time>2014-05-11T08:35:50Z</time>
      </trkpt>
      <trkpt lat="44.61011" lon="6.14868">
        <ele>1351.2702636719</ele>
        <time>2014-05-11T08:35:52Z</time>
      </trkpt>
      <trkpt lat="44.61001" lon="6.14872">
        <ele>1349.34765625</ele>
        <time>2014-05-11T08:36:01Z</time>
      </trkpt>
      <trkpt lat="44.60997" lon="6.14869">
        <ele>1345.9831542969</ele>
        <time>2014-05-11T08:36:08Z</time>
      </trkpt>
      <trkpt lat="44.60986" lon="6.14865">
        <ele>1346.9443359375</ele>
        <time>2014-05-11T08:36:19Z</time>
      </trkpt>
      <trkpt lat="44.60966" lon="6.14853">
        <ele>1343.5798339844</ele>
        <time>2014-05-11T08:36:29Z</time>
      </trkpt>
      <trkpt lat="44.60963" lon="6.1485">
        <ele>1343.5798339844</ele>
        <time>2014-05-11T08:36:30Z</time>
      </trkpt>
      <trkpt lat="44.6095" lon="6.14844">
        <ele>1340.2153320312</ele>
        <time>2014-05-11T08:36:34Z</time>
      </trkpt>
      <trkpt lat="44.60947" lon="6.14844">
        <ele>1339.734375</ele>
        <time>2014-05-11T08:36:35Z</time>
      </trkpt>
      <trkpt lat="44.60935" lon="6.14839">
        <ele>1336.3698730469</ele>
        <time>2014-05-11T08:36:40Z</time>
      </trkpt>
      <trkpt lat="44.60927" lon="6.14836">
        <ele>1333.0051269531</ele>
        <time>2014-05-11T08:36:43Z</time>
      </trkpt>
      <trkpt lat="44.60922" lon="6.14839">
        <ele>1331.0827636719</ele>
        <time>2014-05-11T08:36:46Z</time>
      </trkpt>
      <trkpt lat="44.60914" lon="6.14836">
        <ele>1327.7180175781</ele>
        <time>2014-05-11T08:36:49Z</time>
      </trkpt>
      <trkpt lat="44.60901" lon="6.14828">
        <ele>1322.9113769531</ele>
        <time>2014-05-11T08:36:53Z</time>
      </trkpt>
      <trkpt lat="44.60898" lon="6.14826">
        <ele>1321.9499511719</ele>
        <time>2014-05-11T08:36:54Z</time>
      </trkpt>
      <trkpt lat="44.60887" lon="6.14824">
        <ele>1320.5080566406</ele>
        <time>2014-05-11T08:36:58Z</time>
      </trkpt>
      <trkpt lat="44.60872" lon="6.14817">
        <ele>1318.5854492188</ele>
        <time>2014-05-11T08:37:02Z</time>
      </trkpt>
      <trkpt lat="44.60852" lon="6.14816">
        <ele>1315.2209472656</ele>
        <time>2014-05-11T08:37:08Z</time>
      </trkpt>
      <trkpt lat="44.60835" lon="6.14815">
        <ele>1312.8176269531</ele>
        <time>2014-05-11T08:37:12Z</time>
      </trkpt>
      <trkpt lat="44.60827" lon="6.14811">
        <ele>1310.4143066406</ele>
        <time>2014-05-11T08:37:14Z</time>
      </trkpt>
      <trkpt lat="44.60813" lon="6.14812">
        <ele>1308.9724121094</ele>
        <time>2014-05-11T08:37:17Z</time>
      </trkpt>
      <trkpt lat="44.6079" lon="6.14815">
        <ele>1306.5688476562</ele>
        <time>2014-05-11T08:37:21Z</time>
      </trkpt>
      <trkpt lat="44.60725" lon="6.14825">
        <ele>1305.6076660156</ele>
        <time>2014-05-11T08:37:35Z</time>
      </trkpt>
      <trkpt lat="44.607" lon="6.1483">
        <ele>1305.126953125</ele>
        <time>2014-05-11T08:37:40Z</time>
      </trkpt>
      <trkpt lat="44.60659" lon="6.1484">
        <ele>1303.2043457031</ele>
        <time>2014-05-11T08:37:47Z</time>
      </trkpt>
      <trkpt lat="44.60647" lon="6.1484">
        <ele>1302.7236328125</ele>
        <time>2014-05-11T08:37:49Z</time>
      </trkpt>
      <trkpt lat="44.60621" lon="6.14843">
        <ele>1301.7624511719</ele>
        <time>2014-05-11T08:37:54Z</time>
      </trkpt>
      <trkpt lat="44.60557" lon="6.14862">
        <ele>1301.2817382812</ele>
        <time>2014-05-11T08:38:10Z</time>
      </trkpt>
      <trkpt lat="44.60535" lon="6.14871">
        <ele>1299.83984375</ele>
        <time>2014-05-11T08:38:15Z</time>
      </trkpt>
      <trkpt lat="44.60507" lon="6.14878">
        <ele>1295.5139160156</ele>
        <time>2014-05-11T08:38:20Z</time>
      </trkpt>
      <trkpt lat="44.60498" lon="6.14886">
        <ele>1295.033203125</ele>
        <time>2014-05-11T08:38:22Z</time>
      </trkpt>
      <trkpt lat="44.60488" lon="6.14908">
        <ele>1295.5139160156</ele>
        <time>2014-05-11T08:38:26Z</time>
      </trkpt>
      <trkpt lat="44.6047" lon="6.1499">
        <ele>1299.3591308594</ele>
        <time>2014-05-11T08:38:40Z</time>
      </trkpt>
      <trkpt lat="44.60466" lon="6.15047">
        <ele>1302.7236328125</ele>
        <time>2014-05-11T08:38:52Z</time>
      </trkpt>
      <trkpt lat="44.60435" lon="6.15111">
        <ele>1306.0881347656</ele>
        <time>2014-05-11T08:39:08Z</time>
      </trkpt>
      <trkpt lat="44.60425" lon="6.15181">
        <ele>1308.9724121094</ele>
        <time>2014-05-11T08:39:24Z</time>
      </trkpt>
      <trkpt lat="44.6042" lon="6.15267">
        <ele>1311.8564453125</ele>
        <time>2014-05-11T08:39:43Z</time>
      </trkpt>
      <trkpt lat="44.60418" lon="6.15308">
        <ele>1315.2209472656</ele>
        <time>2014-05-11T08:39:54Z</time>
      </trkpt>
      <trkpt lat="44.60424" lon="6.1537">
        <ele>1318.5854492188</ele>
        <time>2014-05-11T08:40:11Z</time>
      </trkpt>
      <trkpt lat="44.60425" lon="6.15417">
        <ele>1321.4692382812</ele>
        <time>2014-05-11T08:40:25Z</time>
      </trkpt>
      <trkpt lat="44.6042" lon="6.15501">
        <ele>1323.3920898438</ele>
        <time>2014-05-11T08:40:43Z</time>
      </trkpt>
      <trkpt lat="44.60394" lon="6.15627">
        <ele>1324.353515625</ele>
        <time>2014-05-11T08:41:00Z</time>
      </trkpt>
      <trkpt lat="44.60387" lon="6.15722">
        <ele>1324.353515625</ele>
        <time>2014-05-11T08:41:12Z</time>
      </trkpt>
      <trkpt lat="44.60411" lon="6.15854">
        <ele>1325.3146972656</ele>
        <time>2014-05-11T08:41:29Z</time>
      </trkpt>
      <trkpt lat="44.6042" lon="6.15915">
        <ele>1326.7568359375</ele>
        <time>2014-05-11T08:41:42Z</time>
      </trkpt>
      <trkpt lat="44.60422" lon="6.15938">
        <ele>1327.7180175781</ele>
        <time>2014-05-11T08:41:58Z</time>
      </trkpt>
      <trkpt lat="44.60424" lon="6.16025">
        <ele>1328.6794433594</ele>
        <time>2014-05-11T08:42:13Z</time>
      </trkpt>
      <trkpt lat="44.6043" lon="6.16122">
        <ele>1332.0439453125</ele>
        <time>2014-05-11T08:42:29Z</time>
      </trkpt>
      <trkpt lat="44.60433" lon="6.16173">
        <ele>1332.5246582031</ele>
        <time>2014-05-11T08:42:38Z</time>
      </trkpt>
      <trkpt lat="44.60417" lon="6.16238">
        <ele>1332.5246582031</ele>
        <time>2014-05-11T08:42:48Z</time>
      </trkpt>
      <trkpt lat="44.6037" lon="6.16325">
        <ele>1332.5246582031</ele>
        <time>2014-05-11T08:43:03Z</time>
      </trkpt>
      <trkpt lat="44.60343" lon="6.16396">
        <ele>1336.3698730469</ele>
        <time>2014-05-11T08:43:16Z</time>
      </trkpt>
      <trkpt lat="44.6031" lon="6.16459">
        <ele>1337.8117675781</ele>
        <time>2014-05-11T08:43:30Z</time>
      </trkpt>
      <trkpt lat="44.60286" lon="6.16455">
        <ele>1338.7731933594</ele>
        <time>2014-05-11T08:43:36Z</time>
      </trkpt>
      <trkpt lat="44.60278" lon="6.16442">
        <ele>1340.2153320312</ele>
        <time>2014-05-11T08:43:39Z</time>
      </trkpt>
      <trkpt lat="44.60212" lon="6.16363">
        <ele>1340.6958007812</ele>
        <time>2014-05-11T08:43:59Z</time>
      </trkpt>
      <trkpt lat="44.60123" lon="6.16323">
        <ele>1339.734375</ele>
        <time>2014-05-11T08:44:14Z</time>
      </trkpt>
      <trkpt lat="44.60053" lon="6.16243">
        <ele>1342.6186523438</ele>
        <time>2014-05-11T08:44:30Z</time>
      </trkpt>
      <trkpt lat="44.60004" lon="6.16185">
        <ele>1345.9831542969</ele>
        <time>2014-05-11T08:44:44Z</time>
      </trkpt>
      <trkpt lat="44.59934" lon="6.16106">
        <ele>1348.8669433594</ele>
        <time>2014-05-11T08:45:04Z</time>
      </trkpt>
      <trkpt lat="44.59913" lon="6.16086">
        <ele>1348.3862304688</ele>
        <time>2014-05-11T08:45:09Z</time>
      </trkpt>
      <trkpt lat="44.5987" lon="6.16067">
        <ele>1345.0217285156</ele>
        <time>2014-05-11T08:45:17Z</time>
      </trkpt>
      <trkpt lat="44.59859" lon="6.16061">
        <ele>1344.060546875</ele>
        <time>2014-05-11T08:45:20Z</time>
      </trkpt>
      <trkpt lat="44.59855" lon="6.16073">
        <ele>1344.541015625</ele>
        <time>2014-05-11T08:45:28Z</time>
      </trkpt>
      <trkpt lat="44.59856" lon="6.1608">
        <ele>1344.541015625</ele>
        <time>2014-05-11T08:45:32Z</time>
      </trkpt>
      <trkpt lat="44.59863" lon="6.16097">
        <ele>1347.4250488281</ele>
        <time>2014-05-11T08:45:40Z</time>
      </trkpt>
      <trkpt lat="44.59866" lon="6.16106">
        <ele>1348.3862304688</ele>
        <time>2014-05-11T08:45:44Z</time>
      </trkpt>
      <trkpt lat="44.59865" lon="6.16139">
        <ele>1350.7895507812</ele>
        <time>2014-05-11T08:45:58Z</time>
      </trkpt>
      <trkpt lat="44.59885" lon="6.16188">
        <ele>1352.2314453125</ele>
        <time>2014-05-11T08:46:17Z</time>
      </trkpt>
      <trkpt lat="44.5989" lon="6.16246">
        <ele>1352.7121582031</ele>
        <time>2014-05-11T08:46:32Z</time>
      </trkpt>
      <trkpt lat="44.59911" lon="6.16344">
        <ele>1354.154296875</ele>
        <time>2014-05-11T08:46:53Z</time>
      </trkpt>
      <trkpt lat="44.59923" lon="6.16391">
        <ele>1355.1154785156</ele>
        <time>2014-05-11T08:47:07Z</time>
      </trkpt>
      <trkpt lat="44.59933" lon="6.16439">
        <ele>1355.5961914062</ele>
        <time>2014-05-11T08:47:22Z</time>
      </trkpt>
      <trkpt lat="44.59943" lon="6.1648">
        <ele>1356.5576171875</ele>
        <time>2014-05-11T08:47:35Z</time>
      </trkpt>
      <trkpt lat="44.59955" lon="6.16549">
        <ele>1358.4802246094</ele>
        <time>2014-05-11T08:47:54Z</time>
      </trkpt>
      <trkpt lat="44.59962" lon="6.16614">
        <ele>1359.9221191406</ele>
        <time>2014-05-11T08:48:10Z</time>
      </trkpt>
      <trkpt lat="44.59997" lon="6.16701">
        <ele>1359.9221191406</ele>
        <time>2014-05-11T08:48:30Z</time>
      </trkpt>
      <trkpt lat="44.60011" lon="6.16722">
        <ele>1359.4416503906</ele>
        <time>2014-05-11T08:48:37Z</time>
      </trkpt>
      <trkpt lat="44.60041" lon="6.16792">
        <ele>1359.9221191406</ele>
        <time>2014-05-11T08:48:54Z</time>
      </trkpt>
      <trkpt lat="44.60063" lon="6.16866">
        <ele>1359.9221191406</ele>
        <time>2014-05-11T08:49:09Z</time>
      </trkpt>
      <trkpt lat="44.60091" lon="6.1696">
        <ele>1358.4802246094</ele>
        <time>2014-05-11T08:49:28Z</time>
      </trkpt>
      <trkpt lat="44.60102" lon="6.17005">
        <ele>1357.9997558594</ele>
        <time>2014-05-11T08:49:41Z</time>
      </trkpt>
      <trkpt lat="44.60127" lon="6.17051">
        <ele>1360.8835449219</ele>
        <time>2014-05-11T08:50:02Z</time>
      </trkpt>
      <trkpt lat="44.60148" lon="6.17086">
        <ele>1364.248046875</ele>
        <time>2014-05-11T08:50:20Z</time>
      </trkpt>
      <trkpt lat="44.60162" lon="6.17117">
        <ele>1366.6513671875</ele>
        <time>2014-05-11T08:50:36Z</time>
      </trkpt>
      <trkpt lat="44.60165" lon="6.17121">
        <ele>1367.6125488281</ele>
        <time>2014-05-11T08:50:38Z</time>
      </trkpt>
      <trkpt lat="44.60171" lon="6.17133">
        <ele>1368.5739746094</ele>
        <time>2014-05-11T08:50:44Z</time>
      </trkpt>
      <trkpt lat="44.60173" lon="6.17165">
        <ele>1370.4965820312</ele>
        <time>2014-05-11T08:50:58Z</time>
      </trkpt>
      <trkpt lat="44.6019" lon="6.17199">
        <ele>1371.9384765625</ele>
        <time>2014-05-11T08:51:15Z</time>
      </trkpt>
      <trkpt lat="44.60214" lon="6.17222">
        <ele>1375.3032226562</ele>
        <time>2014-05-11T08:51:32Z</time>
      </trkpt>
      <trkpt lat="44.6023" lon="6.1725">
        <ele>1377.7065429688</ele>
        <time>2014-05-11T08:51:51Z</time>
      </trkpt>
      <trkpt lat="44.60213" lon="6.17292">
        <ele>1380.5905761719</ele>
        <time>2014-05-11T08:52:11Z</time>
      </trkpt>
      <trkpt lat="44.60187" lon="6.17357">
        <ele>1383.955078125</ele>
        <time>2014-05-11T08:52:37Z</time>
      </trkpt>
      <trkpt lat="44.60154" lon="6.17401">
        <ele>1386.8388671875</ele>
        <time>2014-05-11T08:52:58Z</time>
      </trkpt>
      <trkpt lat="44.6012" lon="6.17451">
        <ele>1390.2038574219</ele>
        <time>2014-05-11T08:53:20Z</time>
      </trkpt>
      <trkpt lat="44.60092" lon="6.17489">
        <ele>1393.568359375</ele>
        <time>2014-05-11T08:53:38Z</time>
      </trkpt>
      <trkpt lat="44.60071" lon="6.17549">
        <ele>1395.0102539062</ele>
        <time>2014-05-11T08:53:59Z</time>
      </trkpt>
      <trkpt lat="44.60057" lon="6.17597">
        <ele>1398.3747558594</ele>
        <time>2014-05-11T08:54:17Z</time>
      </trkpt>
      <trkpt lat="44.60055" lon="6.1765">
        <ele>1399.3361816406</ele>
        <time>2014-05-11T08:54:34Z</time>
      </trkpt>
      <trkpt lat="44.60021" lon="6.17644">
        <ele>1401.7395019531</ele>
        <time>2014-05-11T08:54:47Z</time>
      </trkpt>
      <trkpt lat="44.59983" lon="6.17666">
        <ele>1404.6235351562</ele>
        <time>2014-05-11T08:55:02Z</time>
      </trkpt>
      <trkpt lat="44.59962" lon="6.17699">
        <ele>1407.98828125</ele>
        <time>2014-05-11T08:55:15Z</time>
      </trkpt>
      <trkpt lat="44.59962" lon="6.17702">
        <ele>1408.46875</ele>
        <time>2014-05-11T08:55:16Z</time>
      </trkpt>
      <trkpt lat="44.59978" lon="6.17737">
        <ele>1411.8334960938</ele>
        <time>2014-05-11T08:55:32Z</time>
      </trkpt>
      <trkpt lat="44.60003" lon="6.17762">
        <ele>1414.2365722656</ele>
        <time>2014-05-11T08:55:49Z</time>
      </trkpt>
      <trkpt lat="44.60032" lon="6.17749">
        <ele>1415.6787109375</ele>
        <time>2014-05-11T08:56:03Z</time>
      </trkpt>
      <trkpt lat="44.60071" lon="6.17755">
        <ele>1416.6398925781</ele>
        <time>2014-05-11T08:56:18Z</time>
      </trkpt>
      <trkpt lat="44.60123" lon="6.1776">
        <ele>1419.5239257812</ele>
        <time>2014-05-11T08:56:37Z</time>
      </trkpt>
      <trkpt lat="44.60154" lon="6.17762">
        <ele>1422.888671875</ele>
        <time>2014-05-11T08:56:49Z</time>
      </trkpt>
      <trkpt lat="44.60206" lon="6.17773">
        <ele>1423.8498535156</ele>
        <time>2014-05-11T08:57:08Z</time>
      </trkpt>
      <trkpt lat="44.6028" lon="6.17786">
        <ele>1425.7724609375</ele>
        <time>2014-05-11T08:57:32Z</time>
      </trkpt>
      <trkpt lat="44.60324" lon="6.17775">
        <ele>1429.1369628906</ele>
        <time>2014-05-11T08:57:48Z</time>
      </trkpt>
      <trkpt lat="44.60357" lon="6.17754">
        <ele>1432.0209960938</ele>
        <time>2014-05-11T08:58:02Z</time>
      </trkpt>
      <trkpt lat="44.60392" lon="6.17714">
        <ele>1435.3854980469</ele>
        <time>2014-05-11T08:58:18Z</time>
      </trkpt>
      <trkpt lat="44.60456" lon="6.17634">
        <ele>1436.3471679688</ele>
        <time>2014-05-11T08:58:40Z</time>
      </trkpt>
      <trkpt lat="44.60518" lon="6.17519">
        <ele>1433.462890625</ele>
        <time>2014-05-11T08:58:59Z</time>
      </trkpt>
      <trkpt lat="44.6058" lon="6.17411">
        <ele>1432.5017089844</ele>
        <time>2014-05-11T08:59:15Z</time>
      </trkpt>
      <trkpt lat="44.60586" lon="6.174">
        <ele>1432.0209960938</ele>
        <time>2014-05-11T08:59:17Z</time>
      </trkpt>
      <trkpt lat="44.60645" lon="6.17319">
        <ele>1434.4243164062</ele>
        <time>2014-05-11T08:59:39Z</time>
      </trkpt>
      <trkpt lat="44.6068" lon="6.17285">
        <ele>1437.7890625</ele>
        <time>2014-05-11T08:59:55Z</time>
      </trkpt>
      <trkpt lat="44.60721" lon="6.17244">
        <ele>1440.6728515625</ele>
        <time>2014-05-11T09:00:14Z</time>
      </trkpt>
      <trkpt lat="44.60759" lon="6.1719">
        <ele>1440.6728515625</ele>
        <time>2014-05-11T09:00:31Z</time>
      </trkpt>
      <trkpt lat="44.60763" lon="6.17186">
        <ele>1441.1535644531</ele>
        <time>2014-05-11T09:00:32Z</time>
      </trkpt>
      <trkpt lat="44.60794" lon="6.17164">
        <ele>1440.1923828125</ele>
        <time>2014-05-11T09:00:39Z</time>
      </trkpt>
      <trkpt lat="44.60839" lon="6.17081">
        <ele>1438.7504882812</ele>
        <time>2014-05-11T09:00:53Z</time>
      </trkpt>
      <trkpt lat="44.60873" lon="6.17054">
        <ele>1442.1149902344</ele>
        <time>2014-05-11T09:01:06Z</time>
      </trkpt>
      <trkpt lat="44.6091" lon="6.1704">
        <ele>1444.9987792969</ele>
        <time>2014-05-11T09:01:21Z</time>
      </trkpt>
      <trkpt lat="44.60935" lon="6.17061">
        <ele>1446.9213867188</ele>
        <time>2014-05-11T09:01:34Z</time>
      </trkpt>
      <trkpt lat="44.6096" lon="6.17121">
        <ele>1450.2861328125</ele>
        <time>2014-05-11T09:01:53Z</time>
      </trkpt>
      <trkpt lat="44.60954" lon="6.17185">
        <ele>1452.689453125</ele>
        <time>2014-05-11T09:02:11Z</time>
      </trkpt>
      <trkpt lat="44.60946" lon="6.17233">
        <ele>1455.5734863281</ele>
        <time>2014-05-11T09:02:26Z</time>
      </trkpt>
      <trkpt lat="44.60965" lon="6.17266">
        <ele>1458.4572753906</ele>
        <time>2014-05-11T09:02:40Z</time>
      </trkpt>
      <trkpt lat="44.60985" lon="6.17263">
        <ele>1459.4187011719</ele>
        <time>2014-05-11T09:02:49Z</time>
      </trkpt>
      <trkpt lat="44.61025" lon="6.17249">
        <ele>1459.8991699219</ele>
        <time>2014-05-11T09:03:04Z</time>
      </trkpt>
      <trkpt lat="44.61054" lon="6.17231">
        <ele>1457.9768066406</ele>
        <time>2014-05-11T09:03:18Z</time>
      </trkpt>
      <trkpt lat="44.61092" lon="6.17212">
        <ele>1456.5346679688</ele>
        <time>2014-05-11T09:03:35Z</time>
      </trkpt>
      <trkpt lat="44.61132" lon="6.17192">
        <ele>1454.6120605469</ele>
        <time>2014-05-11T09:03:47Z</time>
      </trkpt>
      <trkpt lat="44.61145" lon="6.17184">
        <ele>1453.6508789062</ele>
        <time>2014-05-11T09:03:50Z</time>
      </trkpt>
      <trkpt lat="44.61156" lon="6.17173">
        <ele>1453.1701660156</ele>
        <time>2014-05-11T09:03:53Z</time>
      </trkpt>
      <trkpt lat="44.61221" lon="6.17142">
        <ele>1449.8054199219</ele>
        <time>2014-05-11T09:04:06Z</time>
      </trkpt>
      <trkpt lat="44.61227" lon="6.17138">
        <ele>1448.8439941406</ele>
        <time>2014-05-11T09:04:07Z</time>
      </trkpt>
      <trkpt lat="44.61304" lon="6.17103">
        <ele>1445.4794921875</ele>
        <time>2014-05-11T09:04:22Z</time>
      </trkpt>
      <trkpt lat="44.61317" lon="6.17099">
        <ele>1444.5180664062</ele>
        <time>2014-05-11T09:04:24Z</time>
      </trkpt>
      <trkpt lat="44.61356" lon="6.17084">
        <ele>1441.1535644531</ele>
        <time>2014-05-11T09:04:30Z</time>
      </trkpt>
      <trkpt lat="44.6137" lon="6.17081">
        <ele>1440.6728515625</ele>
        <time>2014-05-11T09:04:32Z</time>
      </trkpt>
      <trkpt lat="44.61394" lon="6.17066">
        <ele>1438.2697753906</ele>
        <time>2014-05-11T09:04:36Z</time>
      </trkpt>
      <trkpt lat="44.61431" lon="6.17047">
        <ele>1433.9436035156</ele>
        <time>2014-05-11T09:04:41Z</time>
      </trkpt>
      <trkpt lat="44.61438" lon="6.17042">
        <ele>1433.9436035156</ele>
        <time>2014-05-11T09:04:42Z</time>
      </trkpt>
      <trkpt lat="44.6145" lon="6.17035">
        <ele>1432.5017089844</ele>
        <time>2014-05-11T09:04:44Z</time>
      </trkpt>
      <trkpt lat="44.61465" lon="6.17025">
        <ele>1431.5402832031</ele>
        <time>2014-05-11T09:04:47Z</time>
      </trkpt>
      <trkpt lat="44.61516" lon="6.17036">
        <ele>1427.2145996094</ele>
        <time>2014-05-11T09:04:55Z</time>
      </trkpt>
      <trkpt lat="44.61523" lon="6.17038">
        <ele>1427.2145996094</ele>
        <time>2014-05-11T09:04:56Z</time>
      </trkpt>
      <trkpt lat="44.61538" lon="6.17041">
        <ele>1425.7724609375</ele>
        <time>2014-05-11T09:04:58Z</time>
      </trkpt>
      <trkpt lat="44.61587" lon="6.17061">
        <ele>1421.4465332031</ele>
        <time>2014-05-11T09:05:04Z</time>
      </trkpt>
      <trkpt lat="44.61613" lon="6.17063">
        <ele>1418.5625</ele>
        <time>2014-05-11T09:05:07Z</time>
      </trkpt>
      <trkpt lat="44.61636" lon="6.17057">
        <ele>1414.7172851562</ele>
        <time>2014-05-11T09:05:10Z</time>
      </trkpt>
      <trkpt lat="44.61662" lon="6.17049">
        <ele>1411.8334960938</ele>
        <time>2014-05-11T09:05:13Z</time>
      </trkpt>
      <trkpt lat="44.61691" lon="6.17035">
        <ele>1407.98828125</ele>
        <time>2014-05-11T09:05:17Z</time>
      </trkpt>
      <trkpt lat="44.61715" lon="6.17016">
        <ele>1404.1430664062</ele>
        <time>2014-05-11T09:05:21Z</time>
      </trkpt>
      <trkpt lat="44.61737" lon="6.16995">
        <ele>1401.2587890625</ele>
        <time>2014-05-11T09:05:25Z</time>
      </trkpt>
      <trkpt lat="44.61748" lon="6.16987">
        <ele>1399.3361816406</ele>
        <time>2014-05-11T09:05:27Z</time>
      </trkpt>
      <trkpt lat="44.6176" lon="6.16982">
        <ele>1397.8942871094</ele>
        <time>2014-05-11T09:05:29Z</time>
      </trkpt>
      <trkpt lat="44.6179" lon="6.16969">
        <ele>1394.0490722656</ele>
        <time>2014-05-11T09:05:33Z</time>
      </trkpt>
      <trkpt lat="44.61797" lon="6.16966">
        <ele>1394.0490722656</ele>
        <time>2014-05-11T09:05:34Z</time>
      </trkpt>
      <trkpt lat="44.61825" lon="6.16953">
        <ele>1390.2038574219</ele>
        <time>2014-05-11T09:05:38Z</time>
      </trkpt>
      <trkpt lat="44.61831" lon="6.1695">
        <ele>1389.7231445312</ele>
        <time>2014-05-11T09:05:39Z</time>
      </trkpt>
      <trkpt lat="44.61851" lon="6.1694">
        <ele>1386.8388671875</ele>
        <time>2014-05-11T09:05:42Z</time>
      </trkpt>
      <trkpt lat="44.61873" lon="6.16914">
        <ele>1385.8776855469</ele>
        <time>2014-05-11T09:05:46Z</time>
      </trkpt>
      <trkpt lat="44.6188" lon="6.16898">
        <ele>1384.9165039062</ele>
        <time>2014-05-11T09:05:48Z</time>
      </trkpt>
      <trkpt lat="44.61896" lon="6.16876">
        <ele>1383.955078125</ele>
        <time>2014-05-11T09:05:52Z</time>
      </trkpt>
      <trkpt lat="44.61935" lon="6.16792">
        <ele>1384.9165039062</ele>
        <time>2014-05-11T09:06:06Z</time>
      </trkpt>
      <trkpt lat="44.61949" lon="6.16731">
        <ele>1385.3969726562</ele>
        <time>2014-05-11T09:06:18Z</time>
      </trkpt>
      <trkpt lat="44.61978" lon="6.16683">
        <ele>1386.3583984375</ele>
        <time>2014-05-11T09:06:35Z</time>
      </trkpt>
      <trkpt lat="44.62006" lon="6.16631">
        <ele>1383.4743652344</ele>
        <time>2014-05-11T09:06:48Z</time>
      </trkpt>
      <trkpt lat="44.62029" lon="6.16575">
        <ele>1380.5905761719</ele>
        <time>2014-05-11T09:06:59Z</time>
      </trkpt>
      <trkpt lat="44.62039" lon="6.16529">
        <ele>1377.2260742188</ele>
        <time>2014-05-11T09:07:06Z</time>
      </trkpt>
      <trkpt lat="44.62048" lon="6.16482">
        <ele>1374.3420410156</ele>
        <time>2014-05-11T09:07:14Z</time>
      </trkpt>
      <trkpt lat="44.62055" lon="6.16456">
        <ele>1372.4194335938</ele>
        <time>2014-05-11T09:07:18Z</time>
      </trkpt>
      <trkpt lat="44.62068" lon="6.16423">
        <ele>1369.5354003906</ele>
        <time>2014-05-11T09:07:23Z</time>
      </trkpt>
      <trkpt lat="44.62089" lon="6.16403">
        <ele>1366.6513671875</ele>
        <time>2014-05-11T09:07:27Z</time>
      </trkpt>
      <trkpt lat="44.62116" lon="6.16391">
        <ele>1364.248046875</ele>
        <time>2014-05-11T09:07:31Z</time>
      </trkpt>
      <trkpt lat="44.62144" lon="6.16381">
        <ele>1360.8835449219</ele>
        <time>2014-05-11T09:07:35Z</time>
      </trkpt>
      <trkpt lat="44.62166" lon="6.1638">
        <ele>1358.4802246094</ele>
        <time>2014-05-11T09:07:38Z</time>
      </trkpt>
      <trkpt lat="44.62191" lon="6.16382">
        <ele>1356.5576171875</ele>
        <time>2014-05-11T09:07:41Z</time>
      </trkpt>
      <trkpt lat="44.62231" lon="6.1637">
        <ele>1352.2314453125</ele>
        <time>2014-05-11T09:07:46Z</time>
      </trkpt>
      <trkpt lat="44.62248" lon="6.1636">
        <ele>1348.8669433594</ele>
        <time>2014-05-11T09:07:49Z</time>
      </trkpt>
      <trkpt lat="44.62259" lon="6.16353">
        <ele>1347.4250488281</ele>
        <time>2014-05-11T09:07:52Z</time>
      </trkpt>
      <trkpt lat="44.62264" lon="6.16325">
        <ele>1346.9443359375</ele>
        <time>2014-05-11T09:07:57Z</time>
      </trkpt>
      <trkpt lat="44.62243" lon="6.16199">
        <ele>1345.0217285156</ele>
        <time>2014-05-11T09:08:18Z</time>
      </trkpt>
      <trkpt lat="44.62239" lon="6.16164">
        <ele>1344.541015625</ele>
        <time>2014-05-11T09:08:23Z</time>
      </trkpt>
      <trkpt lat="44.62257" lon="6.16124">
        <ele>1345.0217285156</ele>
        <time>2014-05-11T09:08:31Z</time>
      </trkpt>
      <trkpt lat="44.62299" lon="6.16113">
        <ele>1345.9831542969</ele>
        <time>2014-05-11T09:08:42Z</time>
      </trkpt>
      <trkpt lat="44.62299" lon="6.16094">
        <ele>1345.9831542969</ele>
        <time>2014-05-11T09:08:46Z</time>
      </trkpt>
      <trkpt lat="44.6227" lon="6.16029">
        <ele>1349.8283691406</ele>
        <time>2014-05-11T09:09:05Z</time>
      </trkpt>
      <trkpt lat="44.62251" lon="6.1599">
        <ele>1353.1928710938</ele>
        <time>2014-05-11T09:09:19Z</time>
      </trkpt>
      <trkpt lat="44.62234" lon="6.15933">
        <ele>1356.5576171875</ele>
        <time>2014-05-11T09:09:36Z</time>
      </trkpt>
      <trkpt lat="44.62225" lon="6.15897">
        <ele>1359.4416503906</ele>
        <time>2014-05-11T09:09:47Z</time>
      </trkpt>
      <trkpt lat="44.62215" lon="6.15848">
        <ele>1362.8061523438</ele>
        <time>2014-05-11T09:10:03Z</time>
      </trkpt>
      <trkpt lat="44.62208" lon="6.15798">
        <ele>1364.7287597656</ele>
        <time>2014-05-11T09:10:19Z</time>
      </trkpt>
      <trkpt lat="44.62195" lon="6.15749">
        <ele>1367.6125488281</ele>
        <time>2014-05-11T09:10:36Z</time>
      </trkpt>
      <trkpt lat="44.62183" lon="6.1569">
        <ele>1370.9772949219</ele>
        <time>2014-05-11T09:10:58Z</time>
      </trkpt>
      <trkpt lat="44.62183" lon="6.15646">
        <ele>1370.4965820312</ele>
        <time>2014-05-11T09:11:10Z</time>
      </trkpt>
      <trkpt lat="44.62173" lon="6.15597">
        <ele>1373.380859375</ele>
        <time>2014-05-11T09:11:28Z</time>
      </trkpt>
      <trkpt lat="44.62165" lon="6.15572">
        <ele>1376.2646484375</ele>
        <time>2014-05-11T09:11:39Z</time>
      </trkpt>
      <trkpt lat="44.62158" lon="6.15545">
        <ele>1379.6291503906</ele>
        <time>2014-05-11T09:11:53Z</time>
      </trkpt>
      <trkpt lat="44.62149" lon="6.15513">
        <ele>1382.5131835938</ele>
        <time>2014-05-11T09:12:09Z</time>
      </trkpt>
      <trkpt lat="44.62129" lon="6.15472">
        <ele>1384.9165039062</ele>
        <time>2014-05-11T09:12:31Z</time>
      </trkpt>
      <trkpt lat="44.62112" lon="6.15451">
        <ele>1387.8002929688</ele>
        <time>2014-05-11T09:12:46Z</time>
      </trkpt>
      <trkpt lat="44.62084" lon="6.15416">
        <ele>1390.6843261719</ele>
        <time>2014-05-11T09:13:10Z</time>
      </trkpt>
      <trkpt lat="44.62063" lon="6.15374">
        <ele>1394.5295410156</ele>
        <time>2014-05-11T09:13:32Z</time>
      </trkpt>
      <trkpt lat="44.62051" lon="6.15367">
        <ele>1395.4909667969</ele>
        <time>2014-05-11T09:13:47Z</time>
      </trkpt>
      <trkpt lat="44.62035" lon="6.15365">
        <ele>1398.3747558594</ele>
        <time>2014-05-11T09:14:08Z</time>
      </trkpt>
      <trkpt lat="44.62033" lon="6.15363">
        <ele>1399.3361816406</ele>
        <time>2014-05-11T09:14:12Z</time>
      </trkpt>
      <trkpt lat="44.62018" lon="6.15354">
        <ele>1402.7006835938</ele>
        <time>2014-05-11T09:14:29Z</time>
      </trkpt>
      <trkpt lat="44.62011" lon="6.15352">
        <ele>1403.1813964844</ele>
        <time>2014-05-11T09:14:42Z</time>
      </trkpt>
      <trkpt lat="44.61984" lon="6.15331">
        <ele>1404.1430664062</ele>
        <time>2014-05-11T09:14:59Z</time>
      </trkpt>
      <trkpt lat="44.61959" lon="6.15314">
        <ele>1403.662109375</ele>
        <time>2014-05-11T09:15:13Z</time>
      </trkpt>
      <trkpt lat="44.61945" lon="6.15304">
        <ele>1403.662109375</ele>
        <time>2014-05-11T09:15:24Z</time>
      </trkpt>
      <trkpt lat="44.61915" lon="6.15287">
        <ele>1403.662109375</ele>
        <time>2014-05-11T09:15:38Z</time>
      </trkpt>
      <trkpt lat="44.61867" lon="6.15255">
        <ele>1405.1042480469</ele>
        <time>2014-05-11T09:15:55Z</time>
      </trkpt>
      <trkpt lat="44.61823" lon="6.15232">
        <ele>1405.5849609375</ele>
        <time>2014-05-11T09:16:11Z</time>
      </trkpt>
      <trkpt lat="44.61776" lon="6.15201">
        <ele>1403.1813964844</ele>
        <time>2014-05-11T09:16:22Z</time>
      </trkpt>
      <trkpt lat="44.61722" lon="6.15173">
        <ele>1404.6235351562</ele>
        <time>2014-05-11T09:16:38Z</time>
      </trkpt>
      <trkpt lat="44.61672" lon="6.15148">
        <ele>1406.5461425781</ele>
        <time>2014-05-11T09:16:55Z</time>
      </trkpt>
      <trkpt lat="44.61615" lon="6.1512">
        <ele>1407.5075683594</ele>
        <time>2014-05-11T09:17:14Z</time>
      </trkpt>
      <trkpt lat="44.61553" lon="6.15101">
        <ele>1407.0268554688</ele>
        <time>2014-05-11T09:17:31Z</time>
      </trkpt>
      <trkpt lat="44.61533" lon="6.15093">
        <ele>1406.5461425781</ele>
        <time>2014-05-11T09:17:37Z</time>
      </trkpt>
      <trkpt lat="44.61511" lon="6.15094">
        <ele>1402.7006835938</ele>
        <time>2014-05-11T09:17:42Z</time>
      </trkpt>
      <trkpt lat="44.61487" lon="6.15081">
        <ele>1399.8168945312</ele>
        <time>2014-05-11T09:17:49Z</time>
      </trkpt>
      <trkpt lat="44.61482" lon="6.15077">
        <ele>1397.8942871094</ele>
        <time>2014-05-11T09:17:51Z</time>
      </trkpt>
      <trkpt lat="44.61465" lon="6.15068">
        <ele>1395.4909667969</ele>
        <time>2014-05-11T09:17:56Z</time>
      </trkpt>
      <trkpt lat="44.6146" lon="6.15065">
        <ele>1394.5295410156</ele>
        <time>2014-05-11T09:17:58Z</time>
      </trkpt>
      <trkpt lat="44.61455" lon="6.15057">
        <ele>1393.0876464844</ele>
        <time>2014-05-11T09:18:01Z</time>
      </trkpt>
      <trkpt lat="44.61443" lon="6.15049">
        <ele>1389.7231445312</ele>
        <time>2014-05-11T09:18:07Z</time>
      </trkpt>
      <trkpt lat="44.61434" lon="6.15043">
        <ele>1385.3969726562</ele>
        <time>2014-05-11T09:18:10Z</time>
      </trkpt>
      <trkpt lat="44.61422" lon="6.15035">
        <ele>1382.9936523438</ele>
        <time>2014-05-11T09:18:15Z</time>
      </trkpt>
      <trkpt lat="44.61415" lon="6.1504">
        <ele>1382.0324707031</ele>
        <time>2014-05-11T09:18:19Z</time>
      </trkpt>
      <trkpt lat="44.61403" lon="6.15033">
        <ele>1379.6291503906</ele>
        <time>2014-05-11T09:18:25Z</time>
      </trkpt>
      <trkpt lat="44.61402" lon="6.15031">
        <ele>1379.6291503906</ele>
        <time>2014-05-11T09:18:26Z</time>
      </trkpt>
      <trkpt lat="44.614" lon="6.15026">
        <ele>1380.1098632812</ele>
        <time>2014-05-11T09:18:28Z</time>
      </trkpt>
      <trkpt lat="44.61393" lon="6.15021">
        <ele>1377.2260742188</ele>
        <time>2014-05-11T09:18:32Z</time>
      </trkpt>
      <trkpt lat="44.6139" lon="6.15013">
        <ele>1375.7839355469</ele>
        <time>2014-05-11T09:18:35Z</time>
      </trkpt>
      <trkpt lat="44.61398" lon="6.14998">
        <ele>1372.4194335938</ele>
        <time>2014-05-11T09:18:42Z</time>
      </trkpt>
      <trkpt lat="44.614" lon="6.1499">
        <ele>1370.9772949219</ele>
        <time>2014-05-11T09:18:44Z</time>
      </trkpt>
      <trkpt lat="44.61403" lon="6.14972">
        <ele>1367.1320800781</ele>
        <time>2014-05-11T09:18:48Z</time>
      </trkpt>
      <trkpt lat="44.61403" lon="6.14967">
        <ele>1366.6513671875</ele>
        <time>2014-05-11T09:18:49Z</time>
      </trkpt>
      <trkpt lat="44.61406" lon="6.14955">
        <ele>1363.7673339844</ele>
        <time>2014-05-11T09:18:53Z</time>
      </trkpt>
      <trkpt lat="44.61406" lon="6.14952">
        <ele>1363.7673339844</ele>
        <time>2014-05-11T09:18:54Z</time>
      </trkpt>
      <trkpt lat="44.61407" lon="6.14949">
        <ele>1362.8061523438</ele>
        <time>2014-05-11T09:18:55Z</time>
      </trkpt>
      <trkpt lat="44.6141" lon="6.14941">
        <ele>1361.3642578125</ele>
        <time>2014-05-11T09:18:58Z</time>
      </trkpt>
      <trkpt lat="44.61412" lon="6.1492">
        <ele>1357.9997558594</ele>
        <time>2014-05-11T09:19:03Z</time>
      </trkpt>
      <trkpt lat="44.61412" lon="6.14917">
        <ele>1357.0383300781</ele>
        <time>2014-05-11T09:19:04Z</time>
      </trkpt>
      <trkpt lat="44.61414" lon="6.14909">
        <ele>1355.5961914062</ele>
        <time>2014-05-11T09:19:06Z</time>
      </trkpt>
      <trkpt lat="44.61415" lon="6.149">
        <ele>1354.634765625</ele>
        <time>2014-05-11T09:19:08Z</time>
      </trkpt>
      <trkpt lat="44.61413" lon="6.14887">
        <ele>1353.1928710938</ele>
        <time>2014-05-11T09:19:11Z</time>
      </trkpt>
      <trkpt lat="44.61409" lon="6.14877">
        <ele>1351.7509765625</ele>
        <time>2014-05-11T09:19:13Z</time>
      </trkpt>
      <trkpt lat="44.61399" lon="6.14861">
        <ele>1350.3090820312</ele>
        <time>2014-05-11T09:19:17Z</time>
      </trkpt>
      <trkpt lat="44.61402" lon="6.14837">
        <ele>1347.4250488281</ele>
        <time>2014-05-11T09:19:22Z</time>
      </trkpt>
      <trkpt lat="44.61402" lon="6.148">
        <ele>1345.9831542969</ele>
        <time>2014-05-11T09:19:28Z</time>
      </trkpt>
      <trkpt lat="44.61404" lon="6.14765">
        <ele>1342.6186523438</ele>
        <time>2014-05-11T09:19:34Z</time>
      </trkpt>
      <trkpt lat="44.61397" lon="6.1474">
        <ele>1339.734375</ele>
        <time>2014-05-11T09:19:39Z</time>
      </trkpt>
      <trkpt lat="44.6139" lon="6.14732">
        <ele>1338.7731933594</ele>
        <time>2014-05-11T09:19:41Z</time>
      </trkpt>
      <trkpt lat="44.61379" lon="6.14701">
        <ele>1334.9279785156</ele>
        <time>2014-05-11T09:19:48Z</time>
      </trkpt>
      <trkpt lat="44.61362" lon="6.14665">
        <ele>1331.5632324219</ele>
        <time>2014-05-11T09:19:57Z</time>
      </trkpt>
      <trkpt lat="44.61358" lon="6.1466">
        <ele>1330.1213378906</ele>
        <time>2014-05-11T09:19:59Z</time>
      </trkpt>
      <trkpt lat="44.61352" lon="6.14652">
        <ele>1328.6794433594</ele>
        <time>2014-05-11T09:20:02Z</time>
      </trkpt>
      <trkpt lat="44.61347" lon="6.14641">
        <ele>1326.2761230469</ele>
        <time>2014-05-11T09:20:12Z</time>
      </trkpt>
      <trkpt lat="44.61347" lon="6.14641">
        <ele>1326.7568359375</ele>
        <time>2014-05-11T09:20:28Z</time>
      </trkpt>
      <trkpt lat="44.61328" lon="6.14623">
        <ele>1323.3920898438</ele>
        <time>2014-05-11T09:20:35Z</time>
      </trkpt>
      <trkpt lat="44.61321" lon="6.1462">
        <ele>1321.9499511719</ele>
        <time>2014-05-11T09:20:37Z</time>
      </trkpt>
      <trkpt lat="44.61274" lon="6.14614">
        <ele>1320.5080566406</ele>
        <time>2014-05-11T09:20:47Z</time>
      </trkpt>
      <trkpt lat="44.61255" lon="6.14618">
        <ele>1319.0661621094</ele>
        <time>2014-05-11T09:20:50Z</time>
      </trkpt>
      <trkpt lat="44.6124" lon="6.14623">
        <ele>1318.1047363281</ele>
        <time>2014-05-11T09:20:52Z</time>
      </trkpt>
      <trkpt lat="44.61189" lon="6.1462">
        <ele>1316.1821289062</ele>
        <time>2014-05-11T09:20:59Z</time>
      </trkpt>
      <trkpt lat="44.61181" lon="6.14602">
        <ele>1314.740234375</ele>
        <time>2014-05-11T09:21:05Z</time>
      </trkpt>
      <trkpt lat="44.61183" lon="6.14602">
        <ele>1314.740234375</ele>
        <time>2014-05-11T09:21:19Z</time>
      </trkpt>
      <trkpt lat="44.61187" lon="6.14599">
        <ele>1315.7016601562</ele>
        <time>2014-05-11T09:21:21Z</time>
      </trkpt>
      <trkpt lat="44.61191" lon="6.1458">
        <ele>1312.8176269531</ele>
        <time>2014-05-11T09:21:25Z</time>
      </trkpt>
      <trkpt lat="44.61176" lon="6.14562">
        <ele>1309.453125</ele>
        <time>2014-05-11T09:21:29Z</time>
      </trkpt>
      <trkpt lat="44.61181" lon="6.14522">
        <ele>1306.5688476562</ele>
        <time>2014-05-11T09:21:36Z</time>
      </trkpt>
      <trkpt lat="44.61208" lon="6.14496">
        <ele>1303.6850585938</ele>
        <time>2014-05-11T09:21:40Z</time>
      </trkpt>
      <trkpt lat="44.61229" lon="6.14477">
        <ele>1300.3205566406</ele>
        <time>2014-05-11T09:21:43Z</time>
      </trkpt>
      <trkpt lat="44.61247" lon="6.14463">
        <ele>1296.9558105469</ele>
        <time>2014-05-11T09:21:46Z</time>
      </trkpt>
      <trkpt lat="44.61265" lon="6.1444">
        <ele>1293.1105957031</ele>
        <time>2014-05-11T09:21:50Z</time>
      </trkpt>
      <trkpt lat="44.61265" lon="6.14432">
        <ele>1293.1105957031</ele>
        <time>2014-05-11T09:21:51Z</time>
      </trkpt>
      <trkpt lat="44.6125" lon="6.14417">
        <ele>1289.7458496094</ele>
        <time>2014-05-11T09:21:54Z</time>
      </trkpt>
      <trkpt lat="44.61244" lon="6.14415">
        <ele>1288.7846679688</ele>
        <time>2014-05-11T09:21:55Z</time>
      </trkpt>
      <trkpt lat="44.61205" lon="6.14411">
        <ele>1285.419921875</ele>
        <time>2014-05-11T09:22:00Z</time>
      </trkpt>
      <trkpt lat="44.61167" lon="6.14376">
        <ele>1283.0166015625</ele>
        <time>2014-05-11T09:22:07Z</time>
      </trkpt>
      <trkpt lat="44.61139" lon="6.1434">
        <ele>1284.4587402344</ele>
        <time>2014-05-11T09:22:15Z</time>
      </trkpt>
      <trkpt lat="44.61118" lon="6.14274">
        <ele>1287.8232421875</ele>
        <time>2014-05-11T09:22:29Z</time>
      </trkpt>
      <trkpt lat="44.61113" lon="6.14246">
        <ele>1287.8232421875</ele>
        <time>2014-05-11T09:22:34Z</time>
      </trkpt>
      <trkpt lat="44.61124" lon="6.14183">
        <ele>1289.2651367188</ele>
        <time>2014-05-11T09:22:44Z</time>
      </trkpt>
      <trkpt lat="44.6113" lon="6.14172">
        <ele>1287.3425292969</ele>
        <time>2014-05-11T09:22:46Z</time>
      </trkpt>
      <trkpt lat="44.61131" lon="6.14134">
        <ele>1282.5361328125</ele>
        <time>2014-05-11T09:22:51Z</time>
      </trkpt>
      <trkpt lat="44.61128" lon="6.14126">
        <ele>1283.0166015625</ele>
        <time>2014-05-11T09:22:52Z</time>
      </trkpt>
      <trkpt lat="44.61124" lon="6.14118">
        <ele>1282.5361328125</ele>
        <time>2014-05-11T09:22:53Z</time>
      </trkpt>
      <trkpt lat="44.61115" lon="6.14089">
        <ele>1280.6135253906</ele>
        <time>2014-05-11T09:22:56Z</time>
      </trkpt>
      <trkpt lat="44.611" lon="6.13991">
        <ele>1277.2490234375</ele>
        <time>2014-05-11T09:23:06Z</time>
      </trkpt>
      <trkpt lat="44.61096" lon="6.13946">
        <ele>1276.7683105469</ele>
        <time>2014-05-11T09:23:13Z</time>
      </trkpt>
      <trkpt lat="44.61104" lon="6.13926">
        <ele>1276.2875976562</ele>
        <time>2014-05-11T09:23:17Z</time>
      </trkpt>
      <trkpt lat="44.6111" lon="6.13919">
        <ele>1275.806640625</ele>
        <time>2014-05-11T09:23:19Z</time>
      </trkpt>
      <trkpt lat="44.61124" lon="6.13912">
        <ele>1274.3647460938</ele>
        <time>2014-05-11T09:23:30Z</time>
      </trkpt>
      <trkpt lat="44.61128" lon="6.13908">
        <ele>1273.8840332031</ele>
        <time>2014-05-11T09:23:50Z</time>
      </trkpt>
      <trkpt lat="44.61128" lon="6.13908">
        <ele>1273.8840332031</ele>
        <time>2014-05-11T09:24:21Z</time>
      </trkpt>
      <trkpt lat="44.61128" lon="6.13908">
        <ele>1273.8840332031</ele>
        <time>2014-05-11T09:24:38Z</time>
      </trkpt>
      <trkpt lat="44.61125" lon="6.13912">
        <ele>1273.8840332031</ele>
        <time>2014-05-11T09:24:54Z</time>
      </trkpt>
      <trkpt lat="44.61125" lon="6.13913">
        <ele>1273.8840332031</ele>
        <time>2014-05-11T09:25:09Z</time>
      </trkpt>
      <trkpt lat="44.6112" lon="6.13913">
        <ele>1274.3647460938</ele>
        <time>2014-05-11T09:25:21Z</time>
      </trkpt>
      <trkpt lat="44.61123" lon="6.13912">
        <ele>1274.3647460938</ele>
        <time>2014-05-11T09:25:23Z</time>
      </trkpt>
      <trkpt lat="44.61126" lon="6.13908">
        <ele>1274.8454589844</ele>
        <time>2014-05-11T09:25:26Z</time>
      </trkpt>
      <trkpt lat="44.61174" lon="6.13901">
        <ele>1275.3259277344</ele>
        <time>2014-05-11T09:25:43Z</time>
      </trkpt>
      <trkpt lat="44.61262" lon="6.13886">
        <ele>1272.9228515625</ele>
        <time>2014-05-11T09:25:59Z</time>
      </trkpt>
      <trkpt lat="44.61359" lon="6.13842">
        <ele>1269.5583496094</ele>
        <time>2014-05-11T09:26:16Z</time>
      </trkpt>
      <trkpt lat="44.61438" lon="6.13788">
        <ele>1265.7131347656</ele>
        <time>2014-05-11T09:26:31Z</time>
      </trkpt>
      <trkpt lat="44.61475" lon="6.13762">
        <ele>1266.6743164062</ele>
        <time>2014-05-11T09:26:39Z</time>
      </trkpt>
      <trkpt lat="44.6146" lon="6.1374">
        <ele>1264.7517089844</ele>
        <time>2014-05-11T09:26:43Z</time>
      </trkpt>
      <trkpt lat="44.61449" lon="6.13733">
        <ele>1265.232421875</ele>
        <time>2014-05-11T09:26:45Z</time>
      </trkpt>
      <trkpt lat="44.61383" lon="6.13632">
        <ele>1268.5969238281</ele>
        <time>2014-05-11T09:27:02Z</time>
      </trkpt>
      <trkpt lat="44.61317" lon="6.13527">
        <ele>1271.9614257812</ele>
        <time>2014-05-11T09:27:20Z</time>
      </trkpt>
      <trkpt lat="44.61219" lon="6.13417">
        <ele>1272.9228515625</ele>
        <time>2014-05-11T09:27:42Z</time>
      </trkpt>
      <trkpt lat="44.61205" lon="6.13402">
        <ele>1273.4035644531</ele>
        <time>2014-05-11T09:27:45Z</time>
      </trkpt>
      <trkpt lat="44.61182" lon="6.13351">
        <ele>1273.8840332031</ele>
        <time>2014-05-11T09:27:52Z</time>
      </trkpt>
      <trkpt lat="44.61178" lon="6.13243">
        <ele>1271.9614257812</ele>
        <time>2014-05-11T09:28:06Z</time>
      </trkpt>
      <trkpt lat="44.61176" lon="6.13203">
        <ele>1271.4807128906</ele>
        <time>2014-05-11T09:28:12Z</time>
      </trkpt>
      <trkpt lat="44.61148" lon="6.13172">
        <ele>1270.51953125</ele>
        <time>2014-05-11T09:28:19Z</time>
      </trkpt>
      <trkpt lat="44.61116" lon="6.13148">
        <ele>1271.0002441406</ele>
        <time>2014-05-11T09:28:25Z</time>
      </trkpt>
      <trkpt lat="44.61102" lon="6.13135">
        <ele>1269.5583496094</ele>
        <time>2014-05-11T09:28:28Z</time>
      </trkpt>
      <trkpt lat="44.6108" lon="6.13134">
        <ele>1268.5969238281</ele>
        <time>2014-05-11T09:28:32Z</time>
      </trkpt>
      <trkpt lat="44.61063" lon="6.13139">
        <ele>1266.6743164062</ele>
        <time>2014-05-11T09:28:37Z</time>
      </trkpt>
      <trkpt lat="44.61055" lon="6.13152">
        <ele>1266.1936035156</ele>
        <time>2014-05-11T09:28:42Z</time>
      </trkpt>
      <trkpt lat="44.6105" lon="6.13163">
        <ele>1266.6743164062</ele>
        <time>2014-05-11T09:28:46Z</time>
      </trkpt>
      <trkpt lat="44.61037" lon="6.13181">
        <ele>1267.6354980469</ele>
        <time>2014-05-11T09:28:55Z</time>
      </trkpt>
      <trkpt lat="44.61031" lon="6.13187">
        <ele>1267.6354980469</ele>
        <time>2014-05-11T09:28:59Z</time>
      </trkpt>
      <trkpt lat="44.6102" lon="6.13217">
        <ele>1268.5969238281</ele>
        <time>2014-05-11T09:29:12Z</time>
      </trkpt>
      <trkpt lat="44.6101" lon="6.13228">
        <ele>1267.6354980469</ele>
        <time>2014-05-11T09:29:18Z</time>
      </trkpt>
      <trkpt lat="44.61006" lon="6.13243">
        <ele>1267.6354980469</ele>
        <time>2014-05-11T09:29:29Z</time>
      </trkpt>
      <trkpt lat="44.61003" lon="6.13257">
        <ele>1268.5969238281</ele>
        <time>2014-05-11T09:29:37Z</time>
      </trkpt>
      <trkpt lat="44.60988" lon="6.13299">
        <ele>1265.7131347656</ele>
        <time>2014-05-11T09:29:51Z</time>
      </trkpt>
      <trkpt lat="44.60979" lon="6.13317">
        <ele>1264.7517089844</ele>
        <time>2014-05-11T09:30:00Z</time>
      </trkpt>
      <trkpt lat="44.60978" lon="6.13322">
        <ele>1264.7517089844</ele>
        <time>2014-05-11T09:30:02Z</time>
      </trkpt>
      <trkpt lat="44.60965" lon="6.13336">
        <ele>1264.7517089844</ele>
        <time>2014-05-11T09:30:12Z</time>
      </trkpt>
      <trkpt lat="44.60966" lon="6.13345">
        <ele>1264.7517089844</ele>
        <time>2014-05-11T09:30:18Z</time>
      </trkpt>
      <trkpt lat="44.60968" lon="6.13362">
        <ele>1265.7131347656</ele>
        <time>2014-05-11T09:30:29Z</time>
      </trkpt>
      <trkpt lat="44.60947" lon="6.1338">
        <ele>1264.2709960938</ele>
        <time>2014-05-11T09:30:43Z</time>
      </trkpt>
      <trkpt lat="44.60928" lon="6.13398">
        <ele>1263.3098144531</ele>
        <time>2014-05-11T09:30:54Z</time>
      </trkpt>
      <trkpt lat="44.60913" lon="6.13427">
        <ele>1263.3098144531</ele>
        <time>2014-05-11T09:31:07Z</time>
      </trkpt>
      <trkpt lat="44.60898" lon="6.13455">
        <ele>1263.3098144531</ele>
        <time>2014-05-11T09:31:18Z</time>
      </trkpt>
      <trkpt lat="44.60879" lon="6.13487">
        <ele>1261.8679199219</ele>
        <time>2014-05-11T09:31:29Z</time>
      </trkpt>
      <trkpt lat="44.60867" lon="6.13494">
        <ele>1261.3872070312</ele>
        <time>2014-05-11T09:31:34Z</time>
      </trkpt>
      <trkpt lat="44.60841" lon="6.13536">
        <ele>1260.42578125</ele>
        <time>2014-05-11T09:31:47Z</time>
      </trkpt>
      <trkpt lat="44.60824" lon="6.13562">
        <ele>1260.9064941406</ele>
        <time>2014-05-11T09:31:56Z</time>
      </trkpt>
      <trkpt lat="44.60817" lon="6.13573">
        <ele>1262.3483886719</ele>
        <time>2014-05-11T09:32:01Z</time>
      </trkpt>
      <trkpt lat="44.60815" lon="6.13577">
        <ele>1262.3483886719</ele>
        <time>2014-05-11T09:32:03Z</time>
      </trkpt>
      <trkpt lat="44.60809" lon="6.1358">
        <ele>1262.3483886719</ele>
        <time>2014-05-11T09:32:07Z</time>
      </trkpt>
      <trkpt lat="44.60805" lon="6.13583">
        <ele>1262.3483886719</ele>
        <time>2014-05-11T09:32:10Z</time>
      </trkpt>
      <trkpt lat="44.60791" lon="6.13596">
        <ele>1263.7902832031</ele>
        <time>2014-05-11T09:32:18Z</time>
      </trkpt>
      <trkpt lat="44.60784" lon="6.13599">
        <ele>1264.7517089844</ele>
        <time>2014-05-11T09:32:22Z</time>
      </trkpt>
      <trkpt lat="44.60781" lon="6.136">
        <ele>1264.7517089844</ele>
        <time>2014-05-11T09:32:24Z</time>
      </trkpt>
      <trkpt lat="44.60771" lon="6.13617">
        <ele>1264.7517089844</ele>
        <time>2014-05-11T09:32:41Z</time>
      </trkpt>
      <trkpt lat="44.60771" lon="6.13617">
        <ele>1264.7517089844</ele>
        <time>2014-05-11T09:32:57Z</time>
      </trkpt>
      <trkpt lat="44.6077" lon="6.1359">
        <ele>1261.3872070312</ele>
        <time>2014-05-11T09:33:08Z</time>
      </trkpt>
      <trkpt lat="44.60772" lon="6.13588">
        <ele>1260.9064941406</ele>
        <time>2014-05-11T09:33:09Z</time>
      </trkpt>
      <trkpt lat="44.60775" lon="6.13581">
        <ele>1259.4643554688</ele>
        <time>2014-05-11T09:33:11Z</time>
      </trkpt>
      <trkpt lat="44.60773" lon="6.1356">
        <ele>1255.619140625</ele>
        <time>2014-05-11T09:33:17Z</time>
      </trkpt>
      <trkpt lat="44.60768" lon="6.13556">
        <ele>1254.6577148438</ele>
        <time>2014-05-11T09:33:19Z</time>
      </trkpt>
      <trkpt lat="44.60761" lon="6.13545">
        <ele>1252.2543945312</ele>
        <time>2014-05-11T09:33:25Z</time>
      </trkpt>
      <trkpt lat="44.60762" lon="6.13542">
        <ele>1250.8125</ele>
        <time>2014-05-11T09:33:27Z</time>
      </trkpt>
      <trkpt lat="44.60761" lon="6.13528">
        <ele>1246.9672851562</ele>
        <time>2014-05-11T09:33:32Z</time>
      </trkpt>
      <trkpt lat="44.60756" lon="6.13518">
        <ele>1243.6025390625</ele>
        <time>2014-05-11T09:33:36Z</time>
      </trkpt>
      <trkpt lat="44.60754" lon="6.13516">
        <ele>1244.0834960938</ele>
        <time>2014-05-11T09:33:37Z</time>
      </trkpt>
      <trkpt lat="44.6075" lon="6.13511">
        <ele>1243.1218261719</ele>
        <time>2014-05-11T09:33:49Z</time>
      </trkpt>
      <trkpt lat="44.60732" lon="6.13493">
        <ele>1239.7573242188</ele>
        <time>2014-05-11T09:34:00Z</time>
      </trkpt>
      <trkpt lat="44.60707" lon="6.13493">
        <ele>1237.3540039062</ele>
        <time>2014-05-11T09:34:12Z</time>
      </trkpt>
      <trkpt lat="44.60701" lon="6.13494">
        <ele>1237.8347167969</ele>
        <time>2014-05-11T09:34:20Z</time>
      </trkpt>
      <trkpt lat="44.60698" lon="6.13495">
        <ele>1236.8732910156</ele>
        <time>2014-05-11T09:34:34Z</time>
      </trkpt>
      <trkpt lat="44.60698" lon="6.13496">
        <ele>1236.8732910156</ele>
        <time>2014-05-11T09:34:56Z</time>
      </trkpt>
      <trkpt lat="44.6069" lon="6.13499">
        <ele>1236.8732910156</ele>
        <time>2014-05-11T09:35:21Z</time>
      </trkpt>
      <trkpt lat="44.60682" lon="6.13503">
        <ele>1237.3540039062</ele>
        <time>2014-05-11T09:35:28Z</time>
      </trkpt>
      <trkpt lat="44.60676" lon="6.13509">
        <ele>1237.3540039062</ele>
        <time>2014-05-11T09:35:35Z</time>
      </trkpt>
      <trkpt lat="44.60672" lon="6.13512">
        <ele>1236.8732910156</ele>
        <time>2014-05-11T09:35:42Z</time>
      </trkpt>
      <trkpt lat="44.60668" lon="6.13515">
        <ele>1235.912109375</ele>
        <time>2014-05-11T09:35:47Z</time>
      </trkpt>
      <trkpt lat="44.60662" lon="6.13512">
        <ele>1236.3928222656</ele>
        <time>2014-05-11T09:35:50Z</time>
      </trkpt>
      <trkpt lat="44.60658" lon="6.13509">
        <ele>1236.3928222656</ele>
        <time>2014-05-11T09:36:04Z</time>
      </trkpt>
      <trkpt lat="44.60658" lon="6.1351">
        <ele>1235.912109375</ele>
        <time>2014-05-11T09:36:30Z</time>
      </trkpt>
      <trkpt lat="44.60658" lon="6.13512">
        <ele>1236.3928222656</ele>
        <time>2014-05-11T09:36:51Z</time>
      </trkpt>
      <trkpt lat="44.60656" lon="6.13512">
        <ele>1235.912109375</ele>
        <time>2014-05-11T09:36:55Z</time>
      </trkpt>
      <trkpt lat="44.60639" lon="6.13511">
        <ele>1234.9509277344</ele>
        <time>2014-05-11T09:37:08Z</time>
      </trkpt>
      <trkpt lat="44.60638" lon="6.1351">
        <ele>1235.4313964844</ele>
        <time>2014-05-11T09:37:21Z</time>
      </trkpt>
      <trkpt lat="44.60637" lon="6.13508">
        <ele>1234.9509277344</ele>
        <time>2014-05-11T09:37:23Z</time>
      </trkpt>
      <trkpt lat="44.60615" lon="6.13504">
        <ele>1233.0280761719</ele>
        <time>2014-05-11T09:37:30Z</time>
      </trkpt>
      <trkpt lat="44.60588" lon="6.13483">
        <ele>1229.6635742188</ele>
        <time>2014-05-11T09:37:39Z</time>
      </trkpt>
      <trkpt lat="44.60571" lon="6.1348">
        <ele>1228.7023925781</ele>
        <time>2014-05-11T09:37:43Z</time>
      </trkpt>
      <trkpt lat="44.60537" lon="6.13457">
        <ele>1225.3374023438</ele>
        <time>2014-05-11T09:37:50Z</time>
      </trkpt>
      <trkpt lat="44.60528" lon="6.13454">
        <ele>1224.8569335938</ele>
        <time>2014-05-11T09:37:52Z</time>
      </trkpt>
      <trkpt lat="44.60516" lon="6.13456">
        <ele>1223.4150390625</ele>
        <time>2014-05-11T09:37:55Z</time>
      </trkpt>
      <trkpt lat="44.60508" lon="6.13456">
        <ele>1222.9343261719</ele>
        <time>2014-05-11T09:37:57Z</time>
      </trkpt>
      <trkpt lat="44.60496" lon="6.13433">
        <ele>1221.01171875</ele>
        <time>2014-05-11T09:38:02Z</time>
      </trkpt>
      <trkpt lat="44.60484" lon="6.13413">
        <ele>1217.1665039062</ele>
        <time>2014-05-11T09:38:07Z</time>
      </trkpt>
      <trkpt lat="44.60484" lon="6.13408">
        <ele>1215.724609375</ele>
        <time>2014-05-11T09:38:08Z</time>
      </trkpt>
      <trkpt lat="44.60475" lon="6.13384">
        <ele>1212.3598632812</ele>
        <time>2014-05-11T09:38:13Z</time>
      </trkpt>
      <trkpt lat="44.60466" lon="6.1336">
        <ele>1210.4370117188</ele>
        <time>2014-05-11T09:38:17Z</time>
      </trkpt>
      <trkpt lat="44.60448" lon="6.13329">
        <ele>1208.9951171875</ele>
        <time>2014-05-11T09:38:21Z</time>
      </trkpt>
      <trkpt lat="44.60431" lon="6.13295">
        <ele>1207.0725097656</ele>
        <time>2014-05-11T09:38:26Z</time>
      </trkpt>
      <trkpt lat="44.60414" lon="6.13259">
        <ele>1204.1887207031</ele>
        <time>2014-05-11T09:38:30Z</time>
      </trkpt>
      <trkpt lat="44.60403" lon="6.13251">
        <ele>1203.7080078125</ele>
        <time>2014-05-11T09:38:33Z</time>
      </trkpt>
      <trkpt lat="44.60399" lon="6.13243">
        <ele>1203.2272949219</ele>
        <time>2014-05-11T09:38:35Z</time>
      </trkpt>
      <trkpt lat="44.60393" lon="6.13222">
        <ele>1201.3046875</ele>
        <time>2014-05-11T09:38:40Z</time>
      </trkpt>
      <trkpt lat="44.6038" lon="6.132">
        <ele>1199.8627929688</ele>
        <time>2014-05-11T09:38:45Z</time>
      </trkpt>
      <trkpt lat="44.60374" lon="6.13182">
        <ele>1198.4206542969</ele>
        <time>2014-05-11T09:38:48Z</time>
      </trkpt>
      <trkpt lat="44.60366" lon="6.13165">
        <ele>1196.4982910156</ele>
        <time>2014-05-11T09:38:51Z</time>
      </trkpt>
      <trkpt lat="44.60361" lon="6.13155">
        <ele>1194.5751953125</ele>
        <time>2014-05-11T09:38:53Z</time>
      </trkpt>
      <trkpt lat="44.60352" lon="6.13155">
        <ele>1194.0947265625</ele>
        <time>2014-05-11T09:38:59Z</time>
      </trkpt>
      <trkpt lat="44.60349" lon="6.13143">
        <ele>1193.1333007812</ele>
        <time>2014-05-11T09:39:03Z</time>
      </trkpt>
      <trkpt lat="44.60345" lon="6.13131">
        <ele>1192.1721191406</ele>
        <time>2014-05-11T09:39:08Z</time>
      </trkpt>
      <trkpt lat="44.60327" lon="6.13109">
        <ele>1188.3269042969</ele>
        <time>2014-05-11T09:39:15Z</time>
      </trkpt>
      <trkpt lat="44.60322" lon="6.131">
        <ele>1186.404296875</ele>
        <time>2014-05-11T09:39:18Z</time>
      </trkpt>
      <trkpt lat="44.60312" lon="6.13093">
        <ele>1185.4428710938</ele>
        <time>2014-05-11T09:39:21Z</time>
      </trkpt>
      <trkpt lat="44.60302" lon="6.13084">
        <ele>1183.5202636719</ele>
        <time>2014-05-11T09:39:25Z</time>
      </trkpt>
      <trkpt lat="44.60292" lon="6.13079">
        <ele>1181.59765625</ele>
        <time>2014-05-11T09:39:29Z</time>
      </trkpt>
      <trkpt lat="44.60283" lon="6.13072">
        <ele>1179.6748046875</ele>
        <time>2014-05-11T09:39:32Z</time>
      </trkpt>
      <trkpt lat="44.60271" lon="6.13062">
        <ele>1176.791015625</ele>
        <time>2014-05-11T09:39:36Z</time>
      </trkpt>
      <trkpt lat="44.60266" lon="6.13055">
        <ele>1175.8295898438</ele>
        <time>2014-05-11T09:39:38Z</time>
      </trkpt>
      <trkpt lat="44.60257" lon="6.13051">
        <ele>1174.8684082031</ele>
        <time>2014-05-11T09:39:41Z</time>
      </trkpt>
      <trkpt lat="44.60247" lon="6.13014">
        <ele>1170.5424804688</ele>
        <time>2014-05-11T09:39:47Z</time>
      </trkpt>
      <trkpt lat="44.60241" lon="6.1299">
        <ele>1166.697265625</ele>
        <time>2014-05-11T09:39:51Z</time>
      </trkpt>
      <trkpt lat="44.60236" lon="6.12961">
        <ele>1163.3325195312</ele>
        <time>2014-05-11T09:39:56Z</time>
      </trkpt>
      <trkpt lat="44.60235" lon="6.12957">
        <ele>1163.3325195312</ele>
        <time>2014-05-11T09:39:57Z</time>
      </trkpt>
      <trkpt lat="44.60216" lon="6.12939">
        <ele>1159.4873046875</ele>
        <time>2014-05-11T09:40:04Z</time>
      </trkpt>
      <trkpt lat="44.60213" lon="6.12937">
        <ele>1159.0065917969</ele>
        <time>2014-05-11T09:40:05Z</time>
      </trkpt>
      <trkpt lat="44.60211" lon="6.12936">
        <ele>1159.0065917969</ele>
        <time>2014-05-11T09:40:06Z</time>
      </trkpt>
      <trkpt lat="44.60203" lon="6.1293">
        <ele>1157.5646972656</ele>
        <time>2014-05-11T09:40:17Z</time>
      </trkpt>
      <trkpt lat="44.60195" lon="6.12924">
        <ele>1155.6420898438</ele>
        <time>2014-05-11T09:40:21Z</time>
      </trkpt>
      <trkpt lat="44.60184" lon="6.12909">
        <ele>1152.27734375</ele>
        <time>2014-05-11T09:40:26Z</time>
      </trkpt>
      <trkpt lat="44.6018" lon="6.12905">
        <ele>1150.3549804688</ele>
        <time>2014-05-11T09:40:28Z</time>
      </trkpt>
      <trkpt lat="44.60176" lon="6.12901">
        <ele>1149.3935546875</ele>
        <time>2014-05-11T09:40:32Z</time>
      </trkpt>
      <trkpt lat="44.60189" lon="6.12886">
        <ele>1149.8742675781</ele>
        <time>2014-05-11T09:40:44Z</time>
      </trkpt>
      <trkpt lat="44.60212" lon="6.12887">
        <ele>1151.3161621094</ele>
        <time>2014-05-11T09:40:57Z</time>
      </trkpt>
      <trkpt lat="44.60235" lon="6.12887">
        <ele>1154.2001953125</ele>
        <time>2014-05-11T09:41:09Z</time>
      </trkpt>
      <trkpt lat="44.60248" lon="6.12899">
        <ele>1157.083984375</ele>
        <time>2014-05-11T09:41:18Z</time>
      </trkpt>
      <trkpt lat="44.60256" lon="6.12899">
        <ele>1158.0454101562</ele>
        <time>2014-05-11T09:41:22Z</time>
      </trkpt>
      <trkpt lat="44.60263" lon="6.12903">
        <ele>1159.4873046875</ele>
        <time>2014-05-11T09:41:27Z</time>
      </trkpt>
      <trkpt lat="44.60283" lon="6.12898">
        <ele>1162.8518066406</ele>
        <time>2014-05-11T09:41:41Z</time>
      </trkpt>
      <trkpt lat="44.60285" lon="6.12895">
        <ele>1163.8129882812</ele>
        <time>2014-05-11T09:41:43Z</time>
      </trkpt>
      <trkpt lat="44.60307" lon="6.12892">
        <ele>1166.2165527344</ele>
        <time>2014-05-11T09:41:57Z</time>
      </trkpt>
      <trkpt lat="44.60308" lon="6.12892">
        <ele>1166.2165527344</ele>
        <time>2014-05-11T09:41:58Z</time>
      </trkpt>
      <trkpt lat="44.60312" lon="6.12895">
        <ele>1168.1391601562</ele>
        <time>2014-05-11T09:42:01Z</time>
      </trkpt>
      <trkpt lat="44.60317" lon="6.12897">
        <ele>1167.6584472656</ele>
        <time>2014-05-11T09:42:04Z</time>
      </trkpt>
      <trkpt lat="44.60337" lon="6.1289">
        <ele>1170.5424804688</ele>
        <time>2014-05-11T09:42:19Z</time>
      </trkpt>
      <trkpt lat="44.60344" lon="6.12884">
        <ele>1171.984375</ele>
        <time>2014-05-11T09:42:24Z</time>
      </trkpt>
      <trkpt lat="44.60346" lon="6.12882">
        <ele>1171.984375</ele>
        <time>2014-05-11T09:42:26Z</time>
      </trkpt>
      <trkpt lat="44.60359" lon="6.1287">
        <ele>1173.4265136719</ele>
        <time>2014-05-11T09:42:35Z</time>
      </trkpt>
      <trkpt lat="44.60365" lon="6.12845">
        <ele>1172.9458007812</ele>
        <time>2014-05-11T09:42:42Z</time>
      </trkpt>
      <trkpt lat="44.60362" lon="6.1283">
        <ele>1171.984375</ele>
        <time>2014-05-11T09:42:46Z</time>
      </trkpt>
      <trkpt lat="44.60355" lon="6.1282">
        <ele>1170.5424804688</ele>
        <time>2014-05-11T09:42:49Z</time>
      </trkpt>
      <trkpt lat="44.60365" lon="6.12784">
        <ele>1168.6198730469</ele>
        <time>2014-05-11T09:42:56Z</time>
      </trkpt>
      <trkpt lat="44.60388" lon="6.12746">
        <ele>1169.1005859375</ele>
        <time>2014-05-11T09:43:09Z</time>
      </trkpt>
      <trkpt lat="44.60393" lon="6.12706">
        <ele>1167.1779785156</ele>
        <time>2014-05-11T09:43:17Z</time>
      </trkpt>
      <trkpt lat="44.60394" lon="6.127">
        <ele>1168.1391601562</ele>
        <time>2014-05-11T09:43:19Z</time>
      </trkpt>
      <trkpt lat="44.60407" lon="6.12698">
        <ele>1169.5812988281</ele>
        <time>2014-05-11T09:43:26Z</time>
      </trkpt>
      <trkpt lat="44.60426" lon="6.12701">
        <ele>1173.4265136719</ele>
        <time>2014-05-11T09:43:37Z</time>
      </trkpt>
      <trkpt lat="44.60436" lon="6.12683">
        <ele>1176.3103027344</ele>
        <time>2014-05-11T09:43:49Z</time>
      </trkpt>
      <trkpt lat="44.60439" lon="6.12677">
        <ele>1177.2717285156</ele>
        <time>2014-05-11T09:43:53Z</time>
      </trkpt>
      <trkpt lat="44.60444" lon="6.12674">
        <ele>1178.2329101562</ele>
        <time>2014-05-11T09:43:57Z</time>
      </trkpt>
      <trkpt lat="44.60467" lon="6.12672">
        <ele>1179.6748046875</ele>
        <time>2014-05-11T09:44:13Z</time>
      </trkpt>
      <trkpt lat="44.60511" lon="6.12656">
        <ele>1180.6364746094</ele>
        <time>2014-05-11T09:44:36Z</time>
      </trkpt>
      <trkpt lat="44.60541" lon="6.12669">
        <ele>1182.5590820312</ele>
        <time>2014-05-11T09:44:52Z</time>
      </trkpt>
      <trkpt lat="44.60549" lon="6.12682">
        <ele>1183.0395507812</ele>
        <time>2014-05-11T09:44:59Z</time>
      </trkpt>
      <trkpt lat="44.60552" lon="6.127">
        <ele>1184.0009765625</ele>
        <time>2014-05-11T09:45:05Z</time>
      </trkpt>
      <trkpt lat="44.6055" lon="6.1271">
        <ele>1184.0009765625</ele>
        <time>2014-05-11T09:45:08Z</time>
      </trkpt>
      <trkpt lat="44.6056" lon="6.12728">
        <ele>1184.4816894531</ele>
        <time>2014-05-11T09:45:15Z</time>
      </trkpt>
      <trkpt lat="44.60581" lon="6.12735">
        <ele>1184.0009765625</ele>
        <time>2014-05-11T09:45:22Z</time>
      </trkpt>
      <trkpt lat="44.60589" lon="6.12728">
        <ele>1184.4816894531</ele>
        <time>2014-05-11T09:45:26Z</time>
      </trkpt>
      <trkpt lat="44.60593" lon="6.1272">
        <ele>1184.0009765625</ele>
        <time>2014-05-11T09:45:29Z</time>
      </trkpt>
      <trkpt lat="44.60596" lon="6.12706">
        <ele>1184.0009765625</ele>
        <time>2014-05-11T09:45:32Z</time>
      </trkpt>
      <trkpt lat="44.60595" lon="6.12697">
        <ele>1183.5202636719</ele>
        <time>2014-05-11T09:45:34Z</time>
      </trkpt>
      <trkpt lat="44.60598" lon="6.12676">
        <ele>1183.0395507812</ele>
        <time>2014-05-11T09:45:38Z</time>
      </trkpt>
      <trkpt lat="44.60591" lon="6.12633">
        <ele>1181.59765625</ele>
        <time>2014-05-11T09:45:49Z</time>
      </trkpt>
      <trkpt lat="44.6059" lon="6.12607">
        <ele>1181.59765625</ele>
        <time>2014-05-11T09:45:57Z</time>
      </trkpt>
      <trkpt lat="44.60588" lon="6.12574">
        <ele>1183.5202636719</ele>
        <time>2014-05-11T09:46:05Z</time>
      </trkpt>
      <trkpt lat="44.60567" lon="6.12534">
        <ele>1183.5202636719</ele>
        <time>2014-05-11T09:46:18Z</time>
      </trkpt>
      <trkpt lat="44.60532" lon="6.1252">
        <ele>1182.5590820312</ele>
        <time>2014-05-11T09:46:27Z</time>
      </trkpt>
      <trkpt lat="44.60517" lon="6.12527">
        <ele>1183.0395507812</ele>
        <time>2014-05-11T09:46:31Z</time>
      </trkpt>
      <trkpt lat="44.60512" lon="6.12535">
        <ele>1182.5590820312</ele>
        <time>2014-05-11T09:46:33Z</time>
      </trkpt>
      <trkpt lat="44.60494" lon="6.12562">
        <ele>1181.1171875</ele>
        <time>2014-05-11T09:46:40Z</time>
      </trkpt>
      <trkpt lat="44.6047" lon="6.12546">
        <ele>1179.6748046875</ele>
        <time>2014-05-11T09:46:47Z</time>
      </trkpt>
      <trkpt lat="44.60469" lon="6.12533">
        <ele>1178.7136230469</ele>
        <time>2014-05-11T09:46:49Z</time>
      </trkpt>
      <trkpt lat="44.60466" lon="6.1252">
        <ele>1178.2329101562</ele>
        <time>2014-05-11T09:46:51Z</time>
      </trkpt>
      <trkpt lat="44.60461" lon="6.12499">
        <ele>1176.791015625</ele>
        <time>2014-05-11T09:46:54Z</time>
      </trkpt>
      <trkpt lat="44.60455" lon="6.12483">
        <ele>1175.8295898438</ele>
        <time>2014-05-11T09:46:56Z</time>
      </trkpt>
      <trkpt lat="44.60446" lon="6.1246">
        <ele>1175.3488769531</ele>
        <time>2014-05-11T09:46:59Z</time>
      </trkpt>
      <trkpt lat="44.60444" lon="6.12444">
        <ele>1173.9069824219</ele>
        <time>2014-05-11T09:47:01Z</time>
      </trkpt>
      <trkpt lat="44.60443" lon="6.12414">
        <ele>1171.0231933594</ele>
        <time>2014-05-11T09:47:06Z</time>
      </trkpt>
      <trkpt lat="44.60443" lon="6.12408">
        <ele>1170.0617675781</ele>
        <time>2014-05-11T09:47:08Z</time>
      </trkpt>
      <trkpt lat="44.60445" lon="6.124">
        <ele>1169.5812988281</ele>
        <time>2014-05-11T09:47:12Z</time>
      </trkpt>
      <trkpt lat="44.60451" lon="6.12389">
        <ele>1169.5812988281</ele>
        <time>2014-05-11T09:47:16Z</time>
      </trkpt>
      <trkpt lat="44.6045" lon="6.1237">
        <ele>1168.6198730469</ele>
        <time>2014-05-11T09:47:20Z</time>
      </trkpt>
      <trkpt lat="44.60453" lon="6.12329">
        <ele>1166.2165527344</ele>
        <time>2014-05-11T09:47:26Z</time>
      </trkpt>
      <trkpt lat="44.60461" lon="6.12299">
        <ele>1163.8129882812</ele>
        <time>2014-05-11T09:47:30Z</time>
      </trkpt>
      <trkpt lat="44.60469" lon="6.12237">
        <ele>1160.4484863281</ele>
        <time>2014-05-11T09:47:37Z</time>
      </trkpt>
      <trkpt lat="44.60466" lon="6.12209">
        <ele>1159.0065917969</ele>
        <time>2014-05-11T09:47:41Z</time>
      </trkpt>
      <trkpt lat="44.60461" lon="6.122">
        <ele>1158.0454101562</ele>
        <time>2014-05-11T09:47:43Z</time>
      </trkpt>
      <trkpt lat="44.60457" lon="6.12195">
        <ele>1158.0454101562</ele>
        <time>2014-05-11T09:47:44Z</time>
      </trkpt>
      <trkpt lat="44.60441" lon="6.12185">
        <ele>1156.1225585938</ele>
        <time>2014-05-11T09:47:48Z</time>
      </trkpt>
      <trkpt lat="44.60431" lon="6.12186">
        <ele>1155.1613769531</ele>
        <time>2014-05-11T09:47:50Z</time>
      </trkpt>
      <trkpt lat="44.60423" lon="6.12189">
        <ele>1154.2001953125</ele>
        <time>2014-05-11T09:47:53Z</time>
      </trkpt>
      <trkpt lat="44.60417" lon="6.12237">
        <ele>1152.27734375</ele>
        <time>2014-05-11T09:48:03Z</time>
      </trkpt>
      <trkpt lat="44.604" lon="6.12259">
        <ele>1149.8742675781</ele>
        <time>2014-05-11T09:48:10Z</time>
      </trkpt>
      <trkpt lat="44.60379" lon="6.12257">
        <ele>1146.9899902344</ele>
        <time>2014-05-11T09:48:22Z</time>
      </trkpt>
      <trkpt lat="44.60332" lon="6.12244">
        <ele>1144.1062011719</ele>
        <time>2014-05-11T09:48:30Z</time>
      </trkpt>
      <trkpt lat="44.60303" lon="6.12234">
        <ele>1142.6643066406</ele>
        <time>2014-05-11T09:48:34Z</time>
      </trkpt>
      <trkpt lat="44.60296" lon="6.12231">
        <ele>1142.6643066406</ele>
        <time>2014-05-11T09:48:35Z</time>
      </trkpt>
      <trkpt lat="44.60248" lon="6.12198">
        <ele>1140.7414550781</ele>
        <time>2014-05-11T09:48:42Z</time>
      </trkpt>
      <trkpt lat="44.60217" lon="6.1217">
        <ele>1138.8190917969</ele>
        <time>2014-05-11T09:48:47Z</time>
      </trkpt>
      <trkpt lat="44.60205" lon="6.12164">
        <ele>1137.8576660156</ele>
        <time>2014-05-11T09:48:49Z</time>
      </trkpt>
      <trkpt lat="44.60178" lon="6.12169">
        <ele>1137.376953125</ele>
        <time>2014-05-11T09:48:53Z</time>
      </trkpt>
      <trkpt lat="44.60153" lon="6.12186">
        <ele>1135.9350585938</ele>
        <time>2014-05-11T09:48:57Z</time>
      </trkpt>
      <trkpt lat="44.60126" lon="6.12151">
        <ele>1133.0510253906</ele>
        <time>2014-05-11T09:49:03Z</time>
      </trkpt>
      <trkpt lat="44.60118" lon="6.12129">
        <ele>1132.08984375</ele>
        <time>2014-05-11T09:49:05Z</time>
      </trkpt>
      <trkpt lat="44.60089" lon="6.1211">
        <ele>1128.2443847656</ele>
        <time>2014-05-11T09:49:09Z</time>
      </trkpt>
      <trkpt lat="44.6003" lon="6.12107">
        <ele>1124.8798828125</ele>
        <time>2014-05-11T09:49:15Z</time>
      </trkpt>
      <trkpt lat="44.59978" lon="6.12084">
        <ele>1121.9958496094</ele>
        <time>2014-05-11T09:49:20Z</time>
      </trkpt>
      <trkpt lat="44.59926" lon="6.1206">
        <ele>1118.6313476562</ele>
        <time>2014-05-11T09:49:25Z</time>
      </trkpt>
      <trkpt lat="44.59916" lon="6.12055">
        <ele>1118.6313476562</ele>
        <time>2014-05-11T09:49:26Z</time>
      </trkpt>
      <trkpt lat="44.5988" lon="6.12024">
        <ele>1116.2280273438</ele>
        <time>2014-05-11T09:49:30Z</time>
      </trkpt>
      <trkpt lat="44.5986" lon="6.11965">
        <ele>1112.3825683594</ele>
        <time>2014-05-11T09:49:35Z</time>
      </trkpt>
      <trkpt lat="44.59847" lon="6.11906">
        <ele>1109.4987792969</ele>
        <time>2014-05-11T09:49:39Z</time>
      </trkpt>
      <trkpt lat="44.59808" lon="6.11854">
        <ele>1104.6921386719</ele>
        <time>2014-05-11T09:49:44Z</time>
      </trkpt>
      <trkpt lat="44.59797" lon="6.11848">
        <ele>1104.2116699219</ele>
        <time>2014-05-11T09:49:45Z</time>
      </trkpt>
      <trkpt lat="44.59753" lon="6.11833">
        <ele>1100.8469238281</ele>
        <time>2014-05-11T09:49:49Z</time>
      </trkpt>
      <trkpt lat="44.59731" lon="6.1183">
        <ele>1099.8854980469</ele>
        <time>2014-05-11T09:49:51Z</time>
      </trkpt>
      <trkpt lat="44.59685" lon="6.11783">
        <ele>1097.0014648438</ele>
        <time>2014-05-11T09:49:57Z</time>
      </trkpt>
      <trkpt lat="44.59684" lon="6.11768">
        <ele>1096.5209960938</ele>
        <time>2014-05-11T09:49:58Z</time>
      </trkpt>
      <trkpt lat="44.59683" lon="6.11736">
        <ele>1094.5981445312</ele>
        <time>2014-05-11T09:50:00Z</time>
      </trkpt>
      <trkpt lat="44.59673" lon="6.1169">
        <ele>1089.7917480469</ele>
        <time>2014-05-11T09:50:03Z</time>
      </trkpt>
      <trkpt lat="44.59666" lon="6.11671">
        <ele>1087.3884277344</ele>
        <time>2014-05-11T09:50:05Z</time>
      </trkpt>
      <trkpt lat="44.59652" lon="6.11676">
        <ele>1084.9853515625</ele>
        <time>2014-05-11T09:50:09Z</time>
      </trkpt>
      <trkpt lat="44.5965" lon="6.11685">
        <ele>1084.5046386719</ele>
        <time>2014-05-11T09:50:10Z</time>
      </trkpt>
      <trkpt lat="44.59647" lon="6.11706">
        <ele>1083.54296875</ele>
        <time>2014-05-11T09:50:12Z</time>
      </trkpt>
      <trkpt lat="44.59637" lon="6.11751">
        <ele>1081.1398925781</ele>
        <time>2014-05-11T09:50:16Z</time>
      </trkpt>
      <trkpt lat="44.59618" lon="6.11798">
        <ele>1078.255859375</ele>
        <time>2014-05-11T09:50:20Z</time>
      </trkpt>
      <trkpt lat="44.59609" lon="6.11848">
        <ele>1075.3718261719</ele>
        <time>2014-05-11T09:50:24Z</time>
      </trkpt>
      <trkpt lat="44.596" lon="6.11869">
        <ele>1071.5266113281</ele>
        <time>2014-05-11T09:50:28Z</time>
      </trkpt>
      <trkpt lat="44.5959" lon="6.11856">
        <ele>1070.5654296875</ele>
        <time>2014-05-11T09:50:30Z</time>
      </trkpt>
      <trkpt lat="44.59569" lon="6.11818">
        <ele>1067.2006835938</ele>
        <time>2014-05-11T09:50:34Z</time>
      </trkpt>
      <trkpt lat="44.59536" lon="6.11776">
        <ele>1063.35546875</ele>
        <time>2014-05-11T09:50:38Z</time>
      </trkpt>
      <trkpt lat="44.59526" lon="6.11766">
        <ele>1061.9135742188</ele>
        <time>2014-05-11T09:50:39Z</time>
      </trkpt>
      <trkpt lat="44.59482" lon="6.11733">
        <ele>1056.6262207031</ele>
        <time>2014-05-11T09:50:43Z</time>
      </trkpt>
      <trkpt lat="44.59439" lon="6.11704">
        <ele>1052.7810058594</ele>
        <time>2014-05-11T09:50:47Z</time>
      </trkpt>
      <trkpt lat="44.59422" lon="6.11693">
        <ele>1050.3776855469</ele>
        <time>2014-05-11T09:50:49Z</time>
      </trkpt>
      <trkpt lat="44.59412" lon="6.11671">
        <ele>1049.8969726562</ele>
        <time>2014-05-11T09:50:53Z</time>
      </trkpt>
      <trkpt lat="44.59421" lon="6.11628">
        <ele>1049.8969726562</ele>
        <time>2014-05-11T09:51:01Z</time>
      </trkpt>
      <trkpt lat="44.59425" lon="6.11611">
        <ele>1050.8581542969</ele>
        <time>2014-05-11T09:51:04Z</time>
      </trkpt>
      <trkpt lat="44.59436" lon="6.11586">
        <ele>1051.8195800781</ele>
        <time>2014-05-11T09:51:09Z</time>
      </trkpt>
      <trkpt lat="44.59437" lon="6.11581">
        <ele>1051.3388671875</ele>
        <time>2014-05-11T09:51:10Z</time>
      </trkpt>
      <trkpt lat="44.59448" lon="6.11517">
        <ele>1051.8195800781</ele>
        <time>2014-05-11T09:51:21Z</time>
      </trkpt>
      <trkpt lat="44.59447" lon="6.11494">
        <ele>1051.3388671875</ele>
        <time>2014-05-11T09:51:25Z</time>
      </trkpt>
      <trkpt lat="44.59444" lon="6.11481">
        <ele>1051.3388671875</ele>
        <time>2014-05-11T09:51:27Z</time>
      </trkpt>
      <trkpt lat="44.59424" lon="6.11445">
        <ele>1051.3388671875</ele>
        <time>2014-05-11T09:51:34Z</time>
      </trkpt>
      <trkpt lat="44.59416" lon="6.11362">
        <ele>1050.8581542969</ele>
        <time>2014-05-11T09:51:48Z</time>
      </trkpt>
      <trkpt lat="44.59398" lon="6.11272">
        <ele>1048.935546875</ele>
        <time>2014-05-11T09:52:03Z</time>
      </trkpt>
      <trkpt lat="44.59391" lon="6.1124">
        <ele>1049.4162597656</ele>
        <time>2014-05-11T09:52:08Z</time>
      </trkpt>
      <trkpt lat="44.59385" lon="6.1117">
        <ele>1048.935546875</ele>
        <time>2014-05-11T09:52:19Z</time>
      </trkpt>
      <trkpt lat="44.59391" lon="6.11116">
        <ele>1045.0903320312</ele>
        <time>2014-05-11T09:52:26Z</time>
      </trkpt>
      <trkpt lat="44.59392" lon="6.11107">
        <ele>1045.5710449219</ele>
        <time>2014-05-11T09:52:27Z</time>
      </trkpt>
      <trkpt lat="44.59385" lon="6.11073">
        <ele>1046.5324707031</ele>
        <time>2014-05-11T09:52:31Z</time>
      </trkpt>
      <trkpt lat="44.59374" lon="6.11055">
        <ele>1047.0129394531</ele>
        <time>2014-05-11T09:52:34Z</time>
      </trkpt>
      <trkpt lat="44.59362" lon="6.11022">
        <ele>1049.4162597656</ele>
        <time>2014-05-11T09:52:40Z</time>
      </trkpt>
      <trkpt lat="44.5935" lon="6.10907">
        <ele>1049.8969726562</ele>
        <time>2014-05-11T09:52:57Z</time>
      </trkpt>
      <trkpt lat="44.59355" lon="6.10812">
        <ele>1047.4936523438</ele>
        <time>2014-05-11T09:53:10Z</time>
      </trkpt>
      <trkpt lat="44.59355" lon="6.10805">
        <ele>1047.9743652344</ele>
        <time>2014-05-11T09:53:11Z</time>
      </trkpt>
      <trkpt lat="44.59348" lon="6.10684">
        <ele>1047.9743652344</ele>
        <time>2014-05-11T09:53:28Z</time>
      </trkpt>
      <trkpt lat="44.59347" lon="6.10675">
        <ele>1047.4936523438</ele>
        <time>2014-05-11T09:53:29Z</time>
      </trkpt>
      <trkpt lat="44.59349" lon="6.1058">
        <ele>1046.5324707031</ele>
        <time>2014-05-11T09:53:41Z</time>
      </trkpt>
      <trkpt lat="44.59349" lon="6.10525">
        <ele>1043.6484375</ele>
        <time>2014-05-11T09:53:46Z</time>
      </trkpt>
      <trkpt lat="44.59346" lon="6.10485">
        <ele>1042.6872558594</ele>
        <time>2014-05-11T09:53:50Z</time>
      </trkpt>
      <trkpt lat="44.59347" lon="6.10453">
        <ele>1042.2065429688</ele>
        <time>2014-05-11T09:53:54Z</time>
      </trkpt>
      <trkpt lat="44.59345" lon="6.10428">
        <ele>1041.2451171875</ele>
        <time>2014-05-11T09:53:57Z</time>
      </trkpt>
      <trkpt lat="44.59347" lon="6.10386">
        <ele>1040.7644042969</ele>
        <time>2014-05-11T09:54:02Z</time>
      </trkpt>
      <trkpt lat="44.5934" lon="6.10337">
        <ele>1042.2065429688</ele>
        <time>2014-05-11T09:54:13Z</time>
      </trkpt>
      <trkpt lat="44.59346" lon="6.10269">
        <ele>1039.3225097656</ele>
        <time>2014-05-11T09:54:23Z</time>
      </trkpt>
      <trkpt lat="44.59347" lon="6.10248">
        <ele>1038.361328125</ele>
        <time>2014-05-11T09:54:26Z</time>
      </trkpt>
      <trkpt lat="44.59361" lon="6.10223">
        <ele>1037.3999023438</ele>
        <time>2014-05-11T09:54:31Z</time>
      </trkpt>
      <trkpt lat="44.59387" lon="6.10207">
        <ele>1037.8806152344</ele>
        <time>2014-05-11T09:54:39Z</time>
      </trkpt>
      <trkpt lat="44.59385" lon="6.10169">
        <ele>1036.9191894531</ele>
        <time>2014-05-11T09:54:46Z</time>
      </trkpt>
      <trkpt lat="44.59389" lon="6.10115">
        <ele>1035.4770507812</ele>
        <time>2014-05-11T09:54:53Z</time>
      </trkpt>
      <trkpt lat="44.59389" lon="6.10078">
        <ele>1033.5544433594</ele>
        <time>2014-05-11T09:54:58Z</time>
      </trkpt>
      <trkpt lat="44.59389" lon="6.10063">
        <ele>1032.1125488281</ele>
        <time>2014-05-11T09:55:00Z</time>
      </trkpt>
      <trkpt lat="44.59393" lon="6.10002">
        <ele>1029.228515625</ele>
        <time>2014-05-11T09:55:07Z</time>
      </trkpt>
      <trkpt lat="44.59382" lon="6.09966">
        <ele>1027.7866210938</ele>
        <time>2014-05-11T09:55:11Z</time>
      </trkpt>
      <trkpt lat="44.59374" lon="6.09948">
        <ele>1026.8254394531</ele>
        <time>2014-05-11T09:55:14Z</time>
      </trkpt>
      <trkpt lat="44.5932" lon="6.09847">
        <ele>1024.9028320312</ele>
        <time>2014-05-11T09:55:28Z</time>
      </trkpt>
      <trkpt lat="44.59286" lon="6.09799">
        <ele>1023.4609375</ele>
        <time>2014-05-11T09:55:36Z</time>
      </trkpt>
      <trkpt lat="44.59265" lon="6.09783">
        <ele>1022.4995117188</ele>
        <time>2014-05-11T09:55:40Z</time>
      </trkpt>
      <trkpt lat="44.59254" lon="6.09779">
        <ele>1022.0187988281</ele>
        <time>2014-05-11T09:55:42Z</time>
      </trkpt>
      <trkpt lat="44.59239" lon="6.09775">
        <ele>1021.0576171875</ele>
        <time>2014-05-11T09:55:45Z</time>
      </trkpt>
      <trkpt lat="44.5919" lon="6.0977">
        <ele>1019.6154785156</ele>
        <time>2014-05-11T09:55:53Z</time>
      </trkpt>
      <trkpt lat="44.59161" lon="6.0977">
        <ele>1017.6926269531</ele>
        <time>2014-05-11T09:55:57Z</time>
      </trkpt>
      <trkpt lat="44.59129" lon="6.09769">
        <ele>1015.7702636719</ele>
        <time>2014-05-11T09:56:01Z</time>
      </trkpt>
      <trkpt lat="44.59079" lon="6.09768">
        <ele>1011.9250488281</ele>
        <time>2014-05-11T09:56:07Z</time>
      </trkpt>
      <trkpt lat="44.59071" lon="6.09768">
        <ele>1011.4443359375</ele>
        <time>2014-05-11T09:56:08Z</time>
      </trkpt>
      <trkpt lat="44.59025" lon="6.09762">
        <ele>1008.0798339844</ele>
        <time>2014-05-11T09:56:13Z</time>
      </trkpt>
      <trkpt lat="44.59016" lon="6.09761">
        <ele>1008.0798339844</ele>
        <time>2014-05-11T09:56:14Z</time>
      </trkpt>
      <trkpt lat="44.5898" lon="6.09763">
        <ele>1005.6765136719</ele>
        <time>2014-05-11T09:56:18Z</time>
      </trkpt>
      <trkpt lat="44.58959" lon="6.09759">
        <ele>1003.2729492188</ele>
        <time>2014-05-11T09:56:22Z</time>
      </trkpt>
      <trkpt lat="44.58955" lon="6.09759">
        <ele>1002.3115234375</ele>
        <time>2014-05-11T09:56:23Z</time>
      </trkpt>
      <trkpt lat="44.58957" lon="6.09768">
        <ele>1000.8696289062</ele>
        <time>2014-05-11T09:56:28Z</time>
      </trkpt>
      <trkpt lat="44.58975" lon="6.0978">
        <ele>999.90844726562</ele>
        <time>2014-05-11T09:56:32Z</time>
      </trkpt>
      <trkpt lat="44.58995" lon="6.09788">
        <ele>996.06323242188</ele>
        <time>2014-05-11T09:56:36Z</time>
      </trkpt>
      <trkpt lat="44.59004" lon="6.09788">
        <ele>992.69873046875</ele>
        <time>2014-05-11T09:56:39Z</time>
      </trkpt>
      <trkpt lat="44.59015" lon="6.09791">
        <ele>990.29541015625</ele>
        <time>2014-05-11T09:56:42Z</time>
      </trkpt>
      <trkpt lat="44.59033" lon="6.09794">
        <ele>990.29541015625</ele>
        <time>2014-05-11T09:56:45Z</time>
      </trkpt>
      <trkpt lat="44.59043" lon="6.09813">
        <ele>986.44995117188</ele>
        <time>2014-05-11T09:56:50Z</time>
      </trkpt>
      <trkpt lat="44.59045" lon="6.09815">
        <ele>986.44995117188</ele>
        <time>2014-05-11T09:56:51Z</time>
      </trkpt>
      <trkpt lat="44.5905" lon="6.09824">
        <ele>984.04663085938</ele>
        <time>2014-05-11T09:56:54Z</time>
      </trkpt>
      <trkpt lat="44.59055" lon="6.09831">
        <ele>982.60473632812</ele>
        <time>2014-05-11T09:56:57Z</time>
      </trkpt>
      <trkpt lat="44.59049" lon="6.09836">
        <ele>980.68212890625</ele>
        <time>2014-05-11T09:57:01Z</time>
      </trkpt>
      <trkpt lat="44.59043" lon="6.09833">
        <ele>978.75952148438</ele>
        <time>2014-05-11T09:57:03Z</time>
      </trkpt>
      <trkpt lat="44.59031" lon="6.0984">
        <ele>975.87548828125</ele>
        <time>2014-05-11T09:57:07Z</time>
      </trkpt>
      <trkpt lat="44.59028" lon="6.09852">
        <ele>973.47241210938</ele>
        <time>2014-05-11T09:57:10Z</time>
      </trkpt>
      <trkpt lat="44.59033" lon="6.09863">
        <ele>971.06884765625</ele>
        <time>2014-05-11T09:57:14Z</time>
      </trkpt>
      <trkpt lat="44.59037" lon="6.09867">
        <ele>969.14624023438</ele>
        <time>2014-05-11T09:57:17Z</time>
      </trkpt>
      <trkpt lat="44.59033" lon="6.0988">
        <ele>966.74291992188</ele>
        <time>2014-05-11T09:57:21Z</time>
      </trkpt>
      <trkpt lat="44.5903" lon="6.0989">
        <ele>964.8203125</ele>
        <time>2014-05-11T09:57:24Z</time>
      </trkpt>
      <trkpt lat="44.59023" lon="6.09892">
        <ele>961.9365234375</ele>
        <time>2014-05-11T09:57:28Z</time>
      </trkpt>
      <trkpt lat="44.59017" lon="6.09895">
        <ele>960.97509765625</ele>
        <time>2014-05-11T09:57:30Z</time>
      </trkpt>
      <trkpt lat="44.59008" lon="6.09907">
        <ele>959.533203125</ele>
        <time>2014-05-11T09:57:35Z</time>
      </trkpt>
      <trkpt lat="44.59011" lon="6.09911">
        <ele>958.57177734375</ele>
        <time>2014-05-11T09:57:37Z</time>
      </trkpt>
      <trkpt lat="44.59021" lon="6.09913">
        <ele>956.16845703125</ele>
        <time>2014-05-11T09:57:41Z</time>
      </trkpt>
      <trkpt lat="44.59032" lon="6.09914">
        <ele>953.76513671875</ele>
        <time>2014-05-11T09:57:44Z</time>
      </trkpt>
      <trkpt lat="44.59033" lon="6.09918">
        <ele>952.8037109375</ele>
        <time>2014-05-11T09:57:46Z</time>
      </trkpt>
      <trkpt lat="44.59027" lon="6.09931">
        <ele>952.32299804688</ele>
        <time>2014-05-11T09:57:51Z</time>
      </trkpt>
      <trkpt lat="44.59011" lon="6.09948">
        <ele>949.919921875</ele>
        <time>2014-05-11T09:58:00Z</time>
      </trkpt>
      <trkpt lat="44.59008" lon="6.09952">
        <ele>948.95849609375</ele>
        <time>2014-05-11T09:58:06Z</time>
      </trkpt>
      <trkpt lat="44.59" lon="6.09957">
        <ele>945.59399414062</ele>
        <time>2014-05-11T09:58:16Z</time>
      </trkpt>
      <trkpt lat="44.58998" lon="6.0996">
        <ele>945.11328125</ele>
        <time>2014-05-11T09:58:19Z</time>
      </trkpt>
      <trkpt lat="44.58996" lon="6.09964">
        <ele>940.78735351562</ele>
        <time>2014-05-11T09:58:27Z</time>
      </trkpt>
      <trkpt lat="44.58992" lon="6.0998">
        <ele>938.86474609375</ele>
        <time>2014-05-11T09:58:39Z</time>
      </trkpt>
      <trkpt lat="44.58991" lon="6.09983">
        <ele>937.42260742188</ele>
        <time>2014-05-11T09:58:42Z</time>
      </trkpt>
      <trkpt lat="44.5899" lon="6.09985">
        <ele>937.9033203125</ele>
        <time>2014-05-11T09:58:47Z</time>
      </trkpt>
      <trkpt lat="44.58977" lon="6.09999">
        <ele>934.05810546875</ele>
        <time>2014-05-11T09:58:55Z</time>
      </trkpt>
      <trkpt lat="44.58975" lon="6.10001">
        <ele>933.0966796875</ele>
        <time>2014-05-11T09:58:56Z</time>
      </trkpt>
      <trkpt lat="44.58972" lon="6.10004">
        <ele>932.13549804688</ele>
        <time>2014-05-11T09:58:58Z</time>
      </trkpt>
      <trkpt lat="44.58968" lon="6.10008">
        <ele>930.212890625</ele>
        <time>2014-05-11T09:59:04Z</time>
      </trkpt>
      <trkpt lat="44.58963" lon="6.10009">
        <ele>929.25146484375</ele>
        <time>2014-05-11T09:59:18Z</time>
      </trkpt>
      <trkpt lat="44.58959" lon="6.1001">
        <ele>930.69360351562</ele>
        <time>2014-05-11T09:59:31Z</time>
      </trkpt>
      <trkpt lat="44.58943" lon="6.1001">
        <ele>930.212890625</ele>
        <time>2014-05-11T09:59:43Z</time>
      </trkpt>
      <trkpt lat="44.58938" lon="6.1001">
        <ele>930.69360351562</ele>
        <time>2014-05-11T10:00:08Z</time>
      </trkpt>
      <trkpt lat="44.58921" lon="6.10013">
        <ele>930.212890625</ele>
        <time>2014-05-11T10:00:18Z</time>
      </trkpt>
      <trkpt lat="44.5891" lon="6.10013">
        <ele>926.36767578125</ele>
        <time>2014-05-11T10:00:22Z</time>
      </trkpt>
      <trkpt lat="44.58901" lon="6.10018">
        <ele>923.0029296875</ele>
        <time>2014-05-11T10:00:25Z</time>
      </trkpt>
      <trkpt lat="44.58888" lon="6.10021">
        <ele>920.11889648438</ele>
        <time>2014-05-11T10:00:29Z</time>
      </trkpt>
      <trkpt lat="44.58877" lon="6.10016">
        <ele>919.63842773438</ele>
        <time>2014-05-11T10:00:32Z</time>
      </trkpt>
      <trkpt lat="44.58869" lon="6.10021">
        <ele>918.67700195312</ele>
        <time>2014-05-11T10:00:36Z</time>
      </trkpt>
      <trkpt lat="44.58864" lon="6.10032">
        <ele>912.9091796875</ele>
        <time>2014-05-11T10:00:43Z</time>
      </trkpt>
      <trkpt lat="44.58863" lon="6.10033">
        <ele>912.9091796875</ele>
        <time>2014-05-11T10:00:44Z</time>
      </trkpt>
      <trkpt lat="44.58859" lon="6.10042">
        <ele>913.87036132812</ele>
        <time>2014-05-11T10:00:56Z</time>
      </trkpt>
      <trkpt lat="44.58852" lon="6.10048">
        <ele>913.38989257812</ele>
        <time>2014-05-11T10:01:00Z</time>
      </trkpt>
      <trkpt lat="44.58833" lon="6.10054">
        <ele>912.42846679688</ele>
        <time>2014-05-11T10:01:07Z</time>
      </trkpt>
      <trkpt lat="44.58824" lon="6.10063">
        <ele>911.46728515625</ele>
        <time>2014-05-11T10:01:12Z</time>
      </trkpt>
      <trkpt lat="44.58819" lon="6.10069">
        <ele>909.54467773438</ele>
        <time>2014-05-11T10:01:16Z</time>
      </trkpt>
      <trkpt lat="44.58819" lon="6.1007">
        <ele>909.54467773438</ele>
        <time>2014-05-11T10:01:17Z</time>
      </trkpt>
      <trkpt lat="44.58824" lon="6.10073">
        <ele>906.66040039062</ele>
        <time>2014-05-11T10:01:20Z</time>
      </trkpt>
      <trkpt lat="44.58826" lon="6.10077">
        <ele>906.1796875</ele>
        <time>2014-05-11T10:01:22Z</time>
      </trkpt>
      <trkpt lat="44.58827" lon="6.10077">
        <ele>902.81518554688</ele>
        <time>2014-05-11T10:01:35Z</time>
      </trkpt>
      <trkpt lat="44.58823" lon="6.1008">
        <ele>903.77661132812</ele>
        <time>2014-05-11T10:01:50Z</time>
      </trkpt>
      <trkpt lat="44.5882" lon="6.10081">
        <ele>904.25732421875</ele>
        <time>2014-05-11T10:02:04Z</time>
      </trkpt>
      <trkpt lat="44.58818" lon="6.10084">
        <ele>904.25732421875</ele>
        <time>2014-05-11T10:02:06Z</time>
      </trkpt>
      <trkpt lat="44.58803" lon="6.10084">
        <ele>904.25732421875</ele>
        <time>2014-05-11T10:02:15Z</time>
      </trkpt>
      <trkpt lat="44.58801" lon="6.10109">
        <ele>903.77661132812</ele>
        <time>2014-05-11T10:02:23Z</time>
      </trkpt>
      <trkpt lat="44.58801" lon="6.10111">
        <ele>902.81518554688</ele>
        <time>2014-05-11T10:02:24Z</time>
      </trkpt>
      <trkpt lat="44.58801" lon="6.10115">
        <ele>901.85400390625</ele>
        <time>2014-05-11T10:02:26Z</time>
      </trkpt>
      <trkpt lat="44.58801" lon="6.10117">
        <ele>901.85400390625</ele>
        <time>2014-05-11T10:02:27Z</time>
      </trkpt>
      <trkpt lat="44.58796" lon="6.10118">
        <ele>901.85400390625</ele>
        <time>2014-05-11T10:02:31Z</time>
      </trkpt>
      <trkpt lat="44.5877" lon="6.10104">
        <ele>903.77661132812</ele>
        <time>2014-05-11T10:02:42Z</time>
      </trkpt>
      <trkpt lat="44.58767" lon="6.10103">
        <ele>903.77661132812</ele>
        <time>2014-05-11T10:02:43Z</time>
      </trkpt>
      <trkpt lat="44.58738" lon="6.10084">
        <ele>902.81518554688</ele>
        <time>2014-05-11T10:02:51Z</time>
      </trkpt>
      <trkpt lat="44.58718" lon="6.10071">
        <ele>901.85400390625</ele>
        <time>2014-05-11T10:02:55Z</time>
      </trkpt>
      <trkpt lat="44.58687" lon="6.10068">
        <ele>900.892578125</ele>
        <time>2014-05-11T10:03:02Z</time>
      </trkpt>
      <trkpt lat="44.58677" lon="6.10065">
        <ele>900.892578125</ele>
        <time>2014-05-11T10:03:05Z</time>
      </trkpt>
      <trkpt lat="44.58655" lon="6.10053">
        <ele>900.412109375</ele>
        <time>2014-05-11T10:03:09Z</time>
      </trkpt>
      <trkpt lat="44.58637" lon="6.10051">
        <ele>899.93139648438</ele>
        <time>2014-05-11T10:03:12Z</time>
      </trkpt>
      <trkpt lat="44.58619" lon="6.10046">
        <ele>898.96997070312</ele>
        <time>2014-05-11T10:03:15Z</time>
      </trkpt>
      <trkpt lat="44.58594" lon="6.10046">
        <ele>897.52807617188</ele>
        <time>2014-05-11T10:03:20Z</time>
      </trkpt>
      <trkpt lat="44.58583" lon="6.10037">
        <ele>897.04736328125</ele>
        <time>2014-05-11T10:03:22Z</time>
      </trkpt>
      <trkpt lat="44.58552" lon="6.10039">
        <ele>896.08618164062</ele>
        <time>2014-05-11T10:03:27Z</time>
      </trkpt>
      <trkpt lat="44.58541" lon="6.10038">
        <ele>895.60546875</ele>
        <time>2014-05-11T10:03:29Z</time>
      </trkpt>
      <trkpt lat="44.58506" lon="6.10045">
        <ele>894.64404296875</ele>
        <time>2014-05-11T10:03:35Z</time>
      </trkpt>
      <trkpt lat="44.58476" lon="6.10039">
        <ele>893.2021484375</ele>
        <time>2014-05-11T10:03:40Z</time>
      </trkpt>
      <trkpt lat="44.58446" lon="6.1004">
        <ele>892.24096679688</ele>
        <time>2014-05-11T10:03:44Z</time>
      </trkpt>
      <trkpt lat="44.58429" lon="6.10048">
        <ele>891.279296875</ele>
        <time>2014-05-11T10:03:47Z</time>
      </trkpt>
      <trkpt lat="44.58414" lon="6.10054">
        <ele>891.279296875</ele>
        <time>2014-05-11T10:03:49Z</time>
      </trkpt>
      <trkpt lat="44.58396" lon="6.10059">
        <ele>890.31811523438</ele>
        <time>2014-05-11T10:03:52Z</time>
      </trkpt>
      <trkpt lat="44.58381" lon="6.10069">
        <ele>889.35668945312</ele>
        <time>2014-05-11T10:03:55Z</time>
      </trkpt>
      <trkpt lat="44.58364" lon="6.10068">
        <ele>888.87622070312</ele>
        <time>2014-05-11T10:03:58Z</time>
      </trkpt>
      <trkpt lat="44.58351" lon="6.10074">
        <ele>888.3955078125</ele>
        <time>2014-05-11T10:04:00Z</time>
      </trkpt>
      <trkpt lat="44.58325" lon="6.10089">
        <ele>886.95336914062</ele>
        <time>2014-05-11T10:04:05Z</time>
      </trkpt>
      <trkpt lat="44.58323" lon="6.10128">
        <ele>885.9921875</ele>
        <time>2014-05-11T10:04:15Z</time>
      </trkpt>
      <trkpt lat="44.58325" lon="6.10131">
        <ele>885.51147460938</ele>
        <time>2014-05-11T10:04:28Z</time>
      </trkpt>
      <trkpt lat="44.58325" lon="6.10131">
        <ele>885.51147460938</ele>
        <time>2014-05-11T10:04:36Z</time>
      </trkpt>
      <trkpt lat="44.58325" lon="6.10138">
        <ele>885.9921875</ele>
        <time>2014-05-11T10:04:40Z</time>
      </trkpt>
      <trkpt lat="44.5833" lon="6.10217">
        <ele>884.55029296875</ele>
        <time>2014-05-11T10:04:53Z</time>
      </trkpt>
      <trkpt lat="44.58334" lon="6.10251">
        <ele>884.06958007812</ele>
        <time>2014-05-11T10:04:57Z</time>
      </trkpt>
      <trkpt lat="44.58332" lon="6.1032">
        <ele>883.5888671875</ele>
        <time>2014-05-11T10:05:04Z</time>
      </trkpt>
      <trkpt lat="44.58312" lon="6.10344">
        <ele>882.14697265625</ele>
        <time>2014-05-11T10:05:09Z</time>
      </trkpt>
      <trkpt lat="44.58284" lon="6.10341">
        <ele>881.18579101562</ele>
        <time>2014-05-11T10:05:13Z</time>
      </trkpt>
      <trkpt lat="44.58268" lon="6.10363">
        <ele>880.22436523438</ele>
        <time>2014-05-11T10:05:19Z</time>
      </trkpt>
      <trkpt lat="44.58277" lon="6.10416">
        <ele>878.78247070312</ele>
        <time>2014-05-11T10:05:25Z</time>
      </trkpt>
      <trkpt lat="44.58279" lon="6.10478">
        <ele>878.78247070312</ele>
        <time>2014-05-11T10:05:31Z</time>
      </trkpt>
      <trkpt lat="44.58273" lon="6.10547">
        <ele>875.41748046875</ele>
        <time>2014-05-11T10:05:37Z</time>
      </trkpt>
      <trkpt lat="44.58257" lon="6.10573">
        <ele>872.05297851562</ele>
        <time>2014-05-11T10:05:41Z</time>
      </trkpt>
      <trkpt lat="44.58249" lon="6.10572">
        <ele>871.572265625</ele>
        <time>2014-05-11T10:05:42Z</time>
      </trkpt>
      <trkpt lat="44.58235" lon="6.10569">
        <ele>870.61108398438</ele>
        <time>2014-05-11T10:05:44Z</time>
      </trkpt>
      <trkpt lat="44.58213" lon="6.10573">
        <ele>869.64990234375</ele>
        <time>2014-05-11T10:05:48Z</time>
      </trkpt>
      <trkpt lat="44.58203" lon="6.10582">
        <ele>870.13037109375</ele>
        <time>2014-05-11T10:05:50Z</time>
      </trkpt>
      <trkpt lat="44.58183" lon="6.10627">
        <ele>866.28515625</ele>
        <time>2014-05-11T10:05:55Z</time>
      </trkpt>
      <trkpt lat="44.58174" lon="6.10649">
        <ele>865.32397460938</ele>
        <time>2014-05-11T10:05:57Z</time>
      </trkpt>
      <trkpt lat="44.58155" lon="6.10707">
        <ele>862.43994140625</ele>
        <time>2014-05-11T10:06:02Z</time>
      </trkpt>
      <trkpt lat="44.58126" lon="6.10795">
        <ele>863.4013671875</ele>
        <time>2014-05-11T10:06:11Z</time>
      </trkpt>
      <trkpt lat="44.58118" lon="6.1086">
        <ele>860.51733398438</ele>
        <time>2014-05-11T10:06:17Z</time>
      </trkpt>
      <trkpt lat="44.58115" lon="6.10884">
        <ele>859.55590820312</ele>
        <time>2014-05-11T10:06:19Z</time>
      </trkpt>
      <trkpt lat="44.58094" lon="6.10931">
        <ele>856.671875</ele>
        <time>2014-05-11T10:06:23Z</time>
      </trkpt>
      <trkpt lat="44.58076" lon="6.11015">
        <ele>852.82666015625</ele>
        <time>2014-05-11T10:06:29Z</time>
      </trkpt>
      <trkpt lat="44.58066" lon="6.11051">
        <ele>849.46215820312</ele>
        <time>2014-05-11T10:06:32Z</time>
      </trkpt>
      <trkpt lat="44.58063" lon="6.11059">
        <ele>848.02026367188</ele>
        <time>2014-05-11T10:06:33Z</time>
      </trkpt>
      <trkpt lat="44.58057" lon="6.11073">
        <ele>847.05883789062</ele>
        <time>2014-05-11T10:06:35Z</time>
      </trkpt>
      <trkpt lat="44.58042" lon="6.11106">
        <ele>846.09765625</ele>
        <time>2014-05-11T10:06:39Z</time>
      </trkpt>
      <trkpt lat="44.58015" lon="6.11131">
        <ele>843.21337890625</ele>
        <time>2014-05-11T10:06:43Z</time>
      </trkpt>
      <trkpt lat="44.57978" lon="6.11132">
        <ele>839.84887695312</ele>
        <time>2014-05-11T10:06:47Z</time>
      </trkpt>
      <trkpt lat="44.57951" lon="6.11126">
        <ele>839.3681640625</ele>
        <time>2014-05-11T10:06:50Z</time>
      </trkpt>
      <trkpt lat="44.5794" lon="6.11119">
        <ele>838.40698242188</ele>
        <time>2014-05-11T10:06:52Z</time>
      </trkpt>
      <trkpt lat="44.57939" lon="6.11106">
        <ele>838.8876953125</ele>
        <time>2014-05-11T10:06:54Z</time>
      </trkpt>
      <trkpt lat="44.57941" lon="6.11071">
        <ele>838.40698242188</ele>
        <time>2014-05-11T10:06:59Z</time>
      </trkpt>
      <trkpt lat="44.57935" lon="6.11042">
        <ele>835.52294921875</ele>
        <time>2014-05-11T10:07:03Z</time>
      </trkpt>
      <trkpt lat="44.57931" lon="6.11028">
        <ele>835.04248046875</ele>
        <time>2014-05-11T10:07:05Z</time>
      </trkpt>
      <trkpt lat="44.57923" lon="6.11008">
        <ele>832.63916015625</ele>
        <time>2014-05-11T10:07:08Z</time>
      </trkpt>
      <trkpt lat="44.57922" lon="6.10999">
        <ele>832.15844726562</ele>
        <time>2014-05-11T10:07:10Z</time>
      </trkpt>
      <trkpt lat="44.57924" lon="6.10996">
        <ele>831.197265625</ele>
        <time>2014-05-11T10:07:20Z</time>
      </trkpt>
      <trkpt lat="44.57922" lon="6.10996">
        <ele>830.23583984375</ele>
        <time>2014-05-11T10:08:30Z</time>
      </trkpt>
      <trkpt lat="44.57922" lon="6.10995">
        <ele>830.23583984375</ele>
        <time>2014-05-11T10:09:33Z</time>
      </trkpt>
      <trkpt lat="44.57921" lon="6.10994">
        <ele>830.23583984375</ele>
        <time>2014-05-11T10:09:47Z</time>
      </trkpt>
      <trkpt lat="44.57919" lon="6.10996">
        <ele>830.23583984375</ele>
        <time>2014-05-11T10:10:00Z</time>
      </trkpt>
      <trkpt lat="44.5792" lon="6.10996">
        <ele>830.23583984375</ele>
        <time>2014-05-11T10:10:27Z</time>
      </trkpt>
      <trkpt lat="44.5792" lon="6.10995">
        <ele>830.23583984375</ele>
        <time>2014-05-11T10:10:44Z</time>
      </trkpt>
      <trkpt lat="44.5792" lon="6.10994">
        <ele>830.23583984375</ele>
        <time>2014-05-11T10:10:57Z</time>
      </trkpt>
      <trkpt lat="44.5792" lon="6.10997">
        <ele>830.23583984375</ele>
        <time>2014-05-11T10:11:07Z</time>
      </trkpt>
      <trkpt lat="44.57921" lon="6.10996">
        <ele>831.197265625</ele>
        <time>2014-05-11T10:11:21Z</time>
      </trkpt>
    </trkseg>
  </trk>
</gpx>